Provisional Data: South Branch Codorus Creek near Leader Heights, PA


Please select a monitoring station.
Please select start date.
Please select start date.

Toggle Unit: C/F Toggle Unit: C/F
Sample Time Temperature (C) Temperature (F) Specific Conductivity (mS/cm) pH   Turbidity (NTU+) DO (mg/L)
9/6/2021 12:00:00 AM 20.78 69.404 0.232 7.35 16.78 8.08
9/6/2021 12:15:00 AM 20.72 69.296 0.232 7.35 15.36 8.04
9/6/2021 12:30:00 AM 20.61 69.098 0.233 7.33 52.34 8.09
9/6/2021 12:45:00 AM 20.62 69.116 0.233 7.33 56.01 8.11
9/6/2021 1:00:00 AM 20.74 69.332 0.233 7.33 52.33 8.09
9/6/2021 1:15:00 AM 20.64 69.152 0.233 7.32 16.84 8.07
9/6/2021 1:30:00 AM 20.61 69.098 0.233 7.33 33.49 8.08
9/6/2021 1:45:00 AM 20.6 69.08 0.233 7.32 43.51 8.09
9/6/2021 2:00:00 AM 20.58 69.044 0.233 7.31 530.5 8.12
9/6/2021 2:15:00 AM 20.57 69.026 0.233 7.31 36.54 8.1
9/6/2021 2:30:00 AM 20.61 69.098 0.232 7.31 57.91 8.09
9/6/2021 2:45:00 AM 20.69 69.242 0.232 7.31 17.16 8.05
9/6/2021 3:00:00 AM 20.58 69.044 0.232 7.3 17.5 8.09
9/6/2021 3:15:00 AM 20.58 69.044 0.233 7.3 98.99 8.08
9/6/2021 3:30:00 AM 20.64 69.152 0.232 7.31 31.71 8.06
9/6/2021 3:45:00 AM 20.56 69.008 0.233 7.3 618.2 8.09
9/6/2021 4:00:00 AM 20.68 69.224 0.232 7.3 15.97 8.07
9/6/2021 4:15:00 AM 20.57 69.026 0.233 7.29 325.1 8.09
9/6/2021 4:30:00 AM 20.53 68.954 0.233 7.29 908.3 8.09
9/6/2021 4:45:00 AM 20.5 68.9 0.233 7.3 463.1 8.11
9/6/2021 5:00:00 AM 20.58 69.044 0.232 7.29 27.03 8.01
9/6/2021 5:15:00 AM 20.59 69.062 0.232 7.29 75.89 8.09
9/6/2021 5:30:00 AM 20.58 69.044 0.232 7.29 31.73 8.03
9/6/2021 5:45:00 AM 20.5 68.9 0.233 7.3 15.41 8.08
9/6/2021 6:00:00 AM 20.54 68.972 0.233 7.29 86.28 8.09
9/6/2021 6:15:00 AM 20.52 68.936 0.233 7.29 22.85 8.04
9/6/2021 6:30:00 AM 20.46 68.828 0.233 7.29 38.61 8.09
9/6/2021 6:45:00 AM 20.5 68.9 0.232 7.29 41.95 8.1
9/6/2021 7:00:00 AM 20.54 68.972 0.231 7.29 31.84 8.05
9/6/2021 7:15:00 AM 20.4 68.72 0.232 7.29 16.83 8.05
9/6/2021 7:30:00 AM 20.36 68.648 0.232 7.29 17.51 8.09
9/6/2021 7:45:00 AM 20.44 68.792 0.232 7.28 230.6 8.1
9/6/2021 8:00:00 AM 20.55 68.99 0.231 7.28 15.08 8.03
9/6/2021 8:15:00 AM 20.43 68.774 0.232 7.3 18.27 8.13
9/6/2021 8:30:00 AM 20.54 68.972 0.232 7.29 62.8 8.16
9/6/2021 8:45:00 AM 20.44 68.792 0.232 7.3 13 8.16
9/6/2021 9:00:00 AM 20.43 68.774 0.232 7.3 16.33 8.2
9/6/2021 9:15:00 AM 20.52 68.936 0.232 7.31 14.29 8.15
9/6/2021 9:30:00 AM 20.56 69.008 0.231 7.32 13.33 8.2
9/6/2021 9:45:00 AM 20.62 69.116 0.231 7.32 53.34 8.18
9/6/2021 10:00:00 AM 20.67 69.206 0.231 7.32 493.6 8.25
9/6/2021 10:15:00 AM 20.75 69.35 0.231 7.33 64.55 8.2
9/6/2021 10:30:00 AM 20.78 69.404 0.232 7.33 14.02 8.21
9/6/2021 10:45:00 AM 20.89 69.602 0.232 7.33 1683 8.25
9/6/2021 11:00:00 AM 20.92 69.656 0.232 7.34 17.34 8.31
9/6/2021 11:15:00 AM 21.02 69.836 0.232 7.34 52.32 8.22
9/6/2021 11:30:00 AM 21.09 69.962 0.232 7.35 12.68 8.23
9/6/2021 11:45:00 AM 21.18 70.124 0.232 7.35 12.34 8.29
9/6/2021 12:00:00 PM 21.13 70.034 0.232 7.36 472.2 8.25
9/6/2021 12:15:00 PM 21.28 70.304 0.232 7.36 12.39 8.34
9/6/2021 12:30:00 PM 21.38 70.484 0.232 7.36 413.4 8.31
9/6/2021 12:45:00 PM 21.47 70.646 0.232 7.37 38.94 8.28
9/6/2021 1:00:00 PM 21.59 70.862 0.233 7.37 12.09 8.28
9/6/2021 1:15:00 PM 21.57 70.826 0.233 7.37 12.68 8.26
9/6/2021 1:30:00 PM 21.66 70.988 0.233 7.37 121.5 8.24
9/6/2021 1:45:00 PM 21.78 71.204 0.233 7.38 12.4 8.27
9/6/2021 2:00:00 PM 21.82 71.276 0.233 7.38 143.1 8.28
9/6/2021 2:15:00 PM 21.85 71.33 0.233 7.39 17.36 8.29
9/6/2021 2:30:00 PM 21.9 71.42 0.233 7.38 264.8 8.28
9/6/2021 2:45:00 PM 21.9 71.42 0.233 7.39 43.19 8.22
9/6/2021 3:00:00 PM 21.97 71.546 0.233 7.39 580.9 8.21
9/6/2021 3:15:00 PM 21.88 71.384 0.234 7.39 466.2 8.24
9/6/2021 3:30:00 PM 21.96 71.528 0.234 7.39 20.57 8.2
9/6/2021 3:45:00 PM 22.02 71.636 0.233 7.4 52.97 8.18
9/6/2021 4:00:00 PM 21.99 71.582 0.234 7.4 21.51 8.15
9/6/2021 4:15:00 PM 22.03 71.654 0.234 7.4 12.39 8.12
9/6/2021 4:30:00 PM 22.05 71.69 0.234 7.4 74.71 8.12
9/6/2021 4:45:00 PM 22.05 71.69 0.234 7.4 20 8.07
9/6/2021 5:00:00 PM 22.11 71.798 0.234 7.39 12.02 8.04
9/6/2021 5:15:00 PM 22.09 71.762 0.232 7.39 11.72 8.05
9/6/2021 5:30:00 PM 22.15 71.87 0.233 7.39 10.45 8.01
9/6/2021 5:45:00 PM 22.08 71.744 0.234 7.39 10.85 8.01
9/6/2021 6:00:00 PM 22.08 71.744 0.234 7.38 31.74 8
9/6/2021 6:15:00 PM 22.06 71.708 0.234 7.39 21.27 8.03
9/6/2021 6:30:00 PM 22.07 71.726 0.234 7.38 27.5 7.96
9/6/2021 6:45:00 PM 22.05 71.69 0.234 7.38 187.7 7.91
9/6/2021 7:00:00 PM 22 71.6 0.235 7.37 135.6 7.91
9/6/2021 7:15:00 PM 22.04 71.672 0.235 7.37 30.01 7.88
9/6/2021 7:30:00 PM 22.01 71.618 0.235 7.37 533.9 7.84
9/6/2021 7:45:00 PM 22 71.6 0.235 7.37 185.6 7.78
9/6/2021 8:00:00 PM 22.01 71.618 0.234 7.36 30.3 7.71
9/6/2021 8:15:00 PM 21.93 71.474 0.235 7.36 57.11 7.7
9/6/2021 8:30:00 PM 21.89 71.402 0.235 7.35 1603 7.77
9/6/2021 8:45:00 PM 21.91 71.438 0.235 7.35 38.95 7.75
9/6/2021 9:00:00 PM 21.9 71.42 0.235 7.35 1511 7.73
9/6/2021 9:15:00 PM 21.89 71.402 0.235 7.35 32.4 7.71
9/6/2021 9:30:00 PM 21.92 71.456 0.235 7.35 209.5 7.69
9/6/2021 9:45:00 PM 21.88 71.384 0.235 7.36 18.11 7.66
9/6/2021 10:00:00 PM 21.9 71.42 0.234 7.35 287.4 7.64
9/6/2021 10:15:00 PM 21.89 71.402 0.233 7.35 780.2 7.66
9/6/2021 10:30:00 PM 21.88 71.384 0.234 7.35 26.7 7.65
9/6/2021 10:45:00 PM 21.86 71.348 0.233 7.35 252.7 7.68
9/6/2021 11:00:00 PM 21.82 71.276 0.235 7.35 64.9 7.68
9/6/2021 11:15:00 PM 21.78 71.204 0.235 7.35 572.3 7.67
9/6/2021 11:30:00 PM 21.8 71.24 0.234 7.35 29.83 7.66
9/6/2021 11:45:00 PM 21.75 71.15 0.235 7.35 184.4 7.72
9/7/2021 12:00:00 AM 21.72 71.096 0.235 7.35 652.1 7.65
9/7/2021 12:15:00 AM 21.67 71.006 0.235 7.35 2231 7.71
9/7/2021 12:30:00 AM 21.64 70.952 0.234 7.35 34.98 7.71
9/7/2021 12:45:00 AM 21.61 70.898 0.234 7.35 44.27 7.66
9/7/2021 1:00:00 AM 21.55 70.79 0.234 7.35 1154 7.68
9/7/2021 1:15:00 AM 21.47 70.646 0.235 7.35 86.72 7.71
9/7/2021 1:30:00 AM 21.44 70.592 0.235 7.34 23.21 7.71
9/7/2021 1:45:00 AM 21.37 70.466 0.235 7.35 121.1 7.77
9/7/2021 2:00:00 AM 21.36 70.448 0.235 7.34 442.2 7.72
9/7/2021 2:15:00 AM 21.3 70.34 0.235 7.34 528 7.75
9/7/2021 2:30:00 AM 21.27 70.286 0.235 7.35 88.48 7.72
9/7/2021 2:45:00 AM 21.16 70.088 0.235 7.34 43.72 7.76
9/7/2021 3:00:00 AM 21.21 70.17799 0.234 7.34 137 7.73
9/7/2021 3:15:00 AM 21.08 69.944 0.234 7.33 79.71 7.74
9/7/2021 3:30:00 AM 21.07 69.926 0.234 7.33 566.3 7.73
9/7/2021 3:45:00 AM 21.05 69.89 0.234 7.33 69.62 7.76
9/7/2021 4:00:00 AM 20.98 69.764 0.235 7.33 392.8 7.77
9/7/2021 4:15:00 AM 20.85 69.53 0.235 7.32 178.5 7.77
9/7/2021 4:30:00 AM 20.79 69.422 0.235 7.33 59.94 7.78
9/7/2021 4:45:00 AM 20.83 69.494 0.235 7.32 100.3 7.78
9/7/2021 5:00:00 AM 20.79 69.422 0.235 7.32 113.7 7.78
9/7/2021 5:15:00 AM 20.73 69.314 0.235 7.32 228.4 7.82
9/7/2021 5:30:00 AM 20.75 69.35 0.234 7.32 671.5 7.84
9/7/2021 5:45:00 AM 20.64 69.152 0.235 7.32 146.3 7.8
9/7/2021 6:00:00 AM 20.56 69.008 0.235 7.32 153.4 7.83
9/7/2021 6:15:00 AM 20.52 68.936 0.235 7.31 1246 7.83
9/7/2021 6:30:00 AM 20.52 68.936 0.235 7.32 224.8 7.85
9/7/2021 6:45:00 AM 20.45 68.81 0.235 7.32 43.56 7.86
9/7/2021 7:00:00 AM 20.41 68.738 0.235 7.32 127.1 7.86
9/7/2021 7:15:00 AM 20.41 68.738 0.234 7.31 1387 7.85
9/7/2021 7:30:00 AM 20.38 68.684 0.234 7.31 446.5 7.85
9/7/2021 7:45:00 AM 20.33 68.594 0.234 7.3 1010 7.84
9/7/2021 8:00:00 AM 20.32 68.576 0.234 7.3 53.76 7.89
9/7/2021 8:15:00 AM 20.33 68.594 0.235 7.3 45.82 7.86
9/7/2021 8:30:00 AM 20.32 68.576 0.235 7.3 97.66 7.86
9/7/2021 8:45:00 AM 20.25 68.45 0.235 7.31 538.9 7.89
9/7/2021 9:00:00 AM 20.36 68.648 0.235 7.3 1992 7.9
9/7/2021 9:15:00 AM 20.38 68.684 0.234 7.31 74.14 7.91
9/7/2021 9:30:00 AM 20.41 68.738 0.234 7.31 271.3 8.01
9/7/2021 9:45:00 AM 20.47 68.846 0.234 7.32 146.9 8.02
9/7/2021 10:00:00 AM 20.5 68.9 0.234 7.32 2478 8.06
9/7/2021 10:15:00 AM 20.69 69.242 0.234 7.33 143.4 8.07
9/7/2021 10:30:00 AM 20.69 69.242 0.234 7.34 392.3 8.13
9/7/2021 10:45:00 AM 20.83 69.494 0.234 7.34 63.99 8.1
9/7/2021 11:00:00 AM 20.78 69.404 0.235 7.34 2754 8.15
9/7/2021 11:15:00 AM 21.01 69.818 0.235 7.35 1555 8.13
9/7/2021 11:30:00 AM 21.01 69.818 0.235 7.35 2434 8.18
9/7/2021 11:45:00 AM 21.18 70.124 0.233 7.37 1107 8.22
9/7/2021 12:00:00 PM 21.22 70.196 0.231 7.37 1027 8.21
9/7/2021 12:15:00 PM 21.47 70.646 0.233 7.38 1147 8.16
9/7/2021 12:30:00 PM 21.44 70.592 0.234 7.39 2036 8.18
9/7/2021 12:45:00 PM 21.63 70.934 0.234 7.4 132.6 8.2
9/7/2021 1:00:00 PM 21.73 71.114 0.235 7.4 1278 8.19
9/7/2021 1:15:00 PM 21.84 71.312 0.235 7.4 985.5 8.19
9/7/2021 1:30:00 PM 21.95 71.51 0.235 7.41 1230 8.18
9/7/2021 1:45:00 PM 21.94 71.492 0.235 7.42 89.48 8.21
9/7/2021 2:00:00 PM 22.17 71.906 0.235 7.43 394.3 8.17
9/7/2021 2:15:00 PM 22.15 71.87 0.235 7.44 80.44 8.2
9/7/2021 2:30:00 PM 22.15 71.87 0.235 7.45 58.63 8.24
9/7/2021 2:45:00 PM 22.16 71.888 0.235 7.46 84.68 8.19
9/7/2021 3:00:00 PM 22.25 72.05 0.235 7.47 31.16 8.14
9/7/2021 3:15:00 PM 22.2 71.96 0.235 7.47 1938 8.16
9/7/2021 3:30:00 PM 22.21 71.978 0.235 7.48 47.89 8.15
9/7/2021 3:45:00 PM 22.22 71.996 0.236 7.48 1444 8.16
9/7/2021 4:00:00 PM 22.24 72.032 0.236 7.49 1118 8.13
9/7/2021 4:15:00 PM 22.26 72.068 0.235 7.5 312.9 8.1
9/7/2021 4:30:00 PM 22.21 71.978 0.236 7.51 1262 8.11
9/7/2021 4:45:00 PM 22.29 72.122 0.235 7.51 1426 8.07
9/7/2021 5:00:00 PM 22.25 72.05 0.236 7.5 8.93 7.99
9/7/2021 5:15:00 PM 22.23 72.014 0.235 7.51 10.83 8
9/7/2021 5:30:00 PM 22.21 71.978 0.235 7.51 1574 7.97
9/7/2021 5:45:00 PM 22.23 72.014 0.235 7.5 1882 7.92
9/7/2021 6:00:00 PM 22.2 71.96 0.236 7.5 190.3 7.93
9/7/2021 6:15:00 PM 22.22 71.996 0.236 7.5 107.8 7.83
9/7/2021 6:30:00 PM 22.18 71.924 0.235 7.49 451.8 7.83
9/7/2021 6:45:00 PM 22.18 71.924 0.236 7.49 1533 7.8
9/7/2021 7:00:00 PM 22.23 72.014 0.236 7.49 252.8 7.76
9/7/2021 7:15:00 PM 22.21 71.978 0.236 7.49 8.6 7.73
9/7/2021 7:30:00 PM 22.22 71.996 0.236 7.48 85.02 7.74
9/7/2021 7:45:00 PM 22.2 71.96 0.235 7.48 1877 7.67
9/7/2021 8:00:00 PM 22.13 71.834 0.236 7.47 165.1 7.61
9/7/2021 8:15:00 PM 22.13 71.834 0.236 7.46 2240 7.58
9/7/2021 8:30:00 PM 22.08 71.744 0.237 7.45 308.2 7.53
9/7/2021 8:45:00 PM 22.1 71.78 0.236 7.45 51.98 7.52
9/7/2021 9:00:00 PM 22.05 71.69 0.236 7.44 554.8 7.56
9/7/2021 9:15:00 PM 22.02 71.636 0.235 7.44 159.4 7.53
9/7/2021 9:30:00 PM 22.04 71.672 0.237 7.44 92.1 7.57
9/7/2021 9:45:00 PM 22.03 71.654 0.237 7.43 100.1 7.56
9/7/2021 10:00:00 PM 21.99 71.582 0.237 7.43 830.6 7.54
9/7/2021 10:15:00 PM 22 71.6 0.237 7.41 187.2 7.52
9/7/2021 10:30:00 PM 22.01 71.618 0.236 7.42 399.6 7.55
9/7/2021 10:45:00 PM 21.99 71.582 0.237 7.41 89.59 7.58
9/7/2021 11:00:00 PM 21.96 71.528 0.237 7.4 3800 7.56
9/7/2021 11:15:00 PM 21.92 71.456 0.237 7.39 800.1 7.56
9/7/2021 11:30:00 PM 21.96 71.528 0.237 7.39 215.1 7.58
9/7/2021 11:45:00 PM 21.93 71.474 0.237 7.39 88.68 7.54
9/8/2021 12:00:00 AM 21.89 71.402 0.237 7.38 1073 7.56
9/8/2021 12:15:00 AM 21.89 71.402 0.237 7.39 62.03 7.55
9/8/2021 12:30:00 AM 21.82 71.276 0.238 7.39 35.93 7.51
9/8/2021 12:45:00 AM 21.82 71.276 0.237 7.38 521.6 7.55
9/8/2021 1:00:00 AM 21.84 71.312 0.237 7.39 80.31 7.58
9/8/2021 1:15:00 AM 21.74 71.132 0.238 7.39 1489 7.58
9/8/2021 1:30:00 AM 21.69 71.042 0.238 7.38 109 7.59
9/8/2021 1:45:00 AM 21.67 71.006 0.238 7.39 394 7.56
9/8/2021 2:00:00 AM 21.62 70.916 0.238 7.39 271.5 7.59
9/8/2021 2:15:00 AM 21.67 71.006 0.237 7.39 735.7 7.57
9/8/2021 2:30:00 AM 21.62 70.916 0.237 7.39 341.7 7.56
9/8/2021 2:45:00 AM 21.54 70.772 0.238 7.39 3787 7.58
9/8/2021 3:00:00 AM 21.55 70.79 0.237 7.39 88.7 7.59
9/8/2021 3:15:00 AM 21.51 70.718 0.237 7.39 1686 7.58
9/8/2021 3:30:00 AM 21.43 70.574 0.237 7.39 154.8 7.59
9/8/2021 3:45:00 AM 21.46 70.628 0.237 7.39 101.8 7.56
9/8/2021 4:00:00 AM 21.43 70.574 0.237 7.38 195.3 7.59
9/8/2021 4:15:00 AM 21.28 70.304 0.238 7.38 1842 7.6
9/8/2021 4:30:00 AM 21.3 70.34 0.238 7.38 965.4 7.57
9/8/2021 4:45:00 AM 21.28 70.304 0.238 7.38 89.86 7.6
9/8/2021 5:00:00 AM 21.25 70.25 0.238 7.38 534.9 7.6
9/8/2021 5:15:00 AM 21.21 70.17799 0.238 7.37 352.1 7.6
9/8/2021 5:30:00 AM 21.15 70.07 0.238 7.38 243 7.61
9/8/2021 5:45:00 AM 21.15 70.07 0.237 7.37 1553 7.56
9/8/2021 6:00:00 AM 21.15 70.07 0.237 7.37 2122 7.58
9/8/2021 6:15:00 AM 21.06 69.908 0.238 7.37 168.6 7.65
9/8/2021 6:30:00 AM 21.03 69.854 0.238 7.36 424.5 7.62
9/8/2021 6:45:00 AM 21.02 69.836 0.238 7.37 978.7 7.63
9/8/2021 7:00:00 AM 20.98 69.764 0.238 7.37 149.3 7.63
9/8/2021 7:15:00 AM 20.92 69.656 0.238 7.37 516.9 7.68
9/8/2021 7:30:00 AM 20.97 69.746 0.237 7.37 130.5 7.63
9/8/2021 7:45:00 AM 20.94 69.692 0.237 7.37 1557 7.66
9/8/2021 8:00:00 AM 20.9 69.62 0.237 7.36 271.2 7.66
9/8/2021 8:15:00 AM 20.97 69.746 0.236 7.36 835.6 7.68
9/8/2021 8:30:00 AM 20.94 69.692 0.237 7.36 866.9 7.69
9/8/2021 8:45:00 AM 21.01 69.818 0.237 7.36 362 7.72
9/8/2021 9:00:00 AM 20.96 69.728 0.237 7.37 106.6 7.77
9/8/2021 9:15:00 AM 21.02 69.836 0.237 7.37 55.2 7.84
9/8/2021 9:30:00 AM 21.09 69.962 0.236 7.38 225.3 7.83
9/8/2021 9:45:00 AM 21.17 70.106 0.236 7.38 274.4 7.9
9/8/2021 10:00:00 AM 21.21 70.17799 0.236 7.39 1446 7.93
9/8/2021 10:15:00 AM 21.27 70.286 0.236 7.39 1970 7.98
9/8/2021 10:30:00 AM 21.36 70.448 0.236 7.4 196.1 8.01
9/8/2021 10:45:00 AM 21.52 70.736 0.236 7.42 216.7 8.01
9/8/2021 11:00:00 AM 21.6 70.88 0.236 7.42 2287 8.03
9/8/2021 11:15:00 AM 21.7 71.06 0.237 7.43 869.5 8.02
9/8/2021 11:30:00 AM 21.74 71.132 0.237 7.44 809.2 8.08
9/8/2021 11:45:00 AM 21.87 71.366 0.236 7.45 555.9 8.11
9/8/2021 12:00:00 PM 22.01 71.618 0.234 7.46 258.8 8.08
9/8/2021 12:15:00 PM 22.17 71.906 0.235 7.47 646.7 8.06
9/8/2021 12:30:00 PM 22.22 71.996 0.236 7.48 1701 8.06
9/8/2021 12:45:00 PM 22.33 72.194 0.236 7.5 842.1 8.1
9/8/2021 1:00:00 PM 22.53 72.554 0.235 7.51 205.9 8.05
9/8/2021 1:15:00 PM 22.57 72.626 0.236 7.51 612.9 8.05
9/8/2021 1:30:00 PM 22.62 72.716 0.236 7.52 350.6 8.11
9/8/2021 1:45:00 PM 22.64 72.752 0.236 7.52 477.5 8.13
9/8/2021 2:00:00 PM 22.77 72.986 0.236 7.53 143.3 8.04
9/8/2021 2:15:00 PM 22.79 73.022 0.236 7.54 741.9 8.04
9/8/2021 2:30:00 PM 22.95 73.31 0.236 7.55 2389 8.01
9/8/2021 2:45:00 PM 22.98 73.364 0.236 7.56 186.6 8
9/8/2021 3:00:00 PM 23.06 73.508 0.236 7.56 241.5 8
9/8/2021 3:15:00 PM 23.11 73.598 0.236 7.58 199.7 7.99
9/8/2021 3:30:00 PM 23.16 73.688 0.236 7.58 1706 7.94
9/8/2021 3:45:00 PM 23.15 73.67 0.236 7.59 204 7.9
9/8/2021 4:00:00 PM 23.09 73.562 0.237 7.6 284.4 7.9
9/8/2021 4:15:00 PM 23.08 73.544 0.237 7.6 44.31 7.83
9/8/2021 4:30:00 PM 23.01 73.418 0.237 7.59 1507 7.85
9/8/2021 4:45:00 PM 23.03 73.454 0.237 7.6 837.6 7.81
9/8/2021 5:00:00 PM 22.99 73.382 0.237 7.61 1127 7.78
9/8/2021 5:15:00 PM 23 73.4 0.236 7.61 705.9 7.77
9/8/2021 5:30:00 PM 22.94 73.292 0.237 7.61 1640 7.73
9/8/2021 5:45:00 PM 22.96 73.328 0.236 7.62 93.59 7.73
9/8/2021 6:00:00 PM 22.91 73.238 0.237 7.62 234.8 7.65
9/8/2021 6:15:00 PM 22.84 73.112 0.238 7.6 2922 7.65
9/8/2021 6:30:00 PM 22.87 73.166 0.237 7.6 176.4 7.61
9/8/2021 6:45:00 PM 22.86 73.148 0.237 7.6 231 7.57
9/8/2021 7:00:00 PM 22.8 73.04 0.237 7.58 59.25 7.53
9/8/2021 7:15:00 PM 22.77 72.986 0.237 7.57 1220 7.49
9/8/2021 7:30:00 PM 22.7 72.86 0.238 7.56 1671 7.4
9/8/2021 7:45:00 PM 22.66 72.788 0.237 7.56 332.4 7.46
9/8/2021 8:00:00 PM 22.65 72.77 0.237 7.55 905.5 7.44
9/8/2021 8:15:00 PM 22.65 72.77 0.236 7.55 294.2 7.37
9/8/2021 8:30:00 PM 22.62 72.716 0.237 7.55 273.6 7.37
9/8/2021 8:45:00 PM 22.6 72.68 0.237 7.54 496.9 7.34
9/8/2021 9:00:00 PM 22.57 72.626 0.237 7.55 808.6 7.34
9/8/2021 9:15:00 PM 22.59 72.662 0.237 7.55 1369 7.32
9/8/2021 9:30:00 PM 22.57 72.626 0.238 7.54 102.6 7.31
9/8/2021 9:45:00 PM 22.56 72.608 0.237 7.54 188.7 7.22
9/8/2021 10:00:00 PM 22.55 72.59 0.238 7.52 973.2 7.23
9/8/2021 10:15:00 PM 22.57 72.626 0.237 7.52 359 7.24
9/8/2021 10:30:00 PM 22.43 72.374 0.233 7.51 523.3 7.29
9/8/2021 10:45:00 PM 22.28 72.104 0.226 7.52 2324 7.51
9/8/2021 11:00:00 PM 22.26 72.068 0.219 7.53 1940 7.46
9/8/2021 11:15:00 PM 22.29 72.122 0.219 7.54 453.6 7.36
9/8/2021 11:30:00 PM 22.24 72.032 0.218 7.55 1434 7.41
9/8/2021 11:45:00 PM 22.24 72.032 0.221 7.57 150.9 7.48
9/9/2021 12:00:00 AM 21.94 71.492 0.223 7.58 486.4 7.57
9/9/2021 12:15:00 AM 21.87 71.366 0.224 7.56 110.6 7.64
9/9/2021 12:30:00 AM 21.85 71.33 0.213 7.56 3723 7.7
9/9/2021 12:45:00 AM 21.87 71.366 0.209 7.56 383.4 7.64
9/9/2021 1:00:00 AM 21.94 71.492 0.209 7.57 195.1 7.66
9/9/2021 1:15:00 AM 21.97 71.546 0.21 7.57 360.3 7.58
9/9/2021 1:30:00 AM 22.07 71.726 0.209 7.57 426.6 7.64
9/9/2021 1:45:00 AM 22.05 71.69 0.208 7.57 98.19 7.67
9/9/2021 2:00:00 AM 22.19 71.942 0.206 7.58 63.73 7.58
9/9/2021 2:15:00 AM 22.17 71.906 0.206 7.61 57.02 7.61
9/9/2021 2:30:00 AM 22.26 72.068 0.205 7.63 50.56 7.6
9/9/2021 2:45:00 AM 22.24 72.032 0.203 7.65 71.59 7.58
9/9/2021 3:00:00 AM 22.17 71.906 0.202 7.65 91.94 7.6
9/9/2021 3:15:00 AM 22.31 72.158 0.203 7.67 78.23 7.6
9/9/2021 3:30:00 AM 22.35 72.23 0.206 7.68 57.91 7.63
9/9/2021 3:45:00 AM 22.56 72.608 0.208 7.7 75.43 7.69
9/9/2021 4:00:00 AM 22.68 72.824 0.209 7.7 68 7.77
9/9/2021 4:15:00 AM 22.56 72.608 0.21 7.68 56.88 7.8
9/9/2021 4:30:00 AM 22.52 72.536 0.21 7.64 45.12 7.73
9/9/2021 4:45:00 AM 22.33 72.194 0.21 7.6 434.2 7.79
9/9/2021 5:00:00 AM 22.31 72.158 0.209 7.58 348 7.69
9/9/2021 5:15:00 AM 22.26 72.068 0.209 7.55 290.2 7.73
9/9/2021 5:30:00 AM 22.12 71.816 0.209 7.55 287.9 7.77
9/9/2021 5:45:00 AM 22.08 71.744 0.209 7.53 287.4 7.78
9/9/2021 6:00:00 AM 22.04 71.672 0.209 7.51 76.47 7.73
9/9/2021 6:15:00 AM 22.03 71.654 0.209 7.5 81.72 7.69
9/9/2021 6:30:00 AM 22.02 71.636 0.211 7.49 94.75 7.76
9/9/2021 6:45:00 AM 22.02 71.636 0.212 7.49 88.43 7.83
9/9/2021 7:00:00 AM 22.04 71.672 0.216 7.41 1552 7.84
9/9/2021 7:15:00 AM 22.12 71.816 0.216 7.47 82.14 7.97
9/9/2021 7:30:00 AM 22.08 71.744 0.216 7.51 80.47 8.01
9/9/2021 7:45:00 AM 22.11 71.798 0.214 7.56 84.58 8.03
9/9/2021 8:00:00 AM 22.1 71.78 0.211 7.58 79.76 8.01
9/9/2021 8:15:00 AM 22.06 71.708 0.209 7.61 79.51 7.97
9/9/2021 8:30:00 AM 21.91 71.438 0.208 7.63 92.41 8.03
9/9/2021 8:45:00 AM 21.96 71.528 0.209 7.62 98.78 8.03
9/9/2021 9:00:00 AM 21.95 71.51 0.209 7.61 77.06 8
9/9/2021 9:15:00 AM 21.94 71.492 0.208 7.61 87.55 8.03
9/9/2021 9:30:00 AM 21.95 71.51 0.208 7.6 84.06 8.02
9/9/2021 9:45:00 AM 21.93 71.474 0.208 7.6 78.41 8.01
9/9/2021 10:00:00 AM 21.9 71.42 0.208 7.59 75.42 8
9/9/2021 10:15:00 AM 21.84 71.312 0.209 7.58 68.83 8.02
9/9/2021 10:30:00 AM 21.77 71.186 0.209 7.56 72.03 8.03
9/9/2021 10:45:00 AM 21.92 71.456 0.21 7.55 64.33 8.01
9/9/2021 11:00:00 AM 21.91 71.438 0.209 7.55 61.38 8.02
9/9/2021 11:15:00 AM 21.94 71.492 0.209 7.55 55.18 7.98
9/9/2021 11:30:00 AM 21.9 71.42 0.208 7.54 59.99 7.94
9/9/2021 11:45:00 AM 21.86 71.348 0.207 7.54 60.01 7.93
9/9/2021 12:00:00 PM 21.94 71.492 0.207 7.54 57.12 7.92
9/9/2021 12:15:00 PM 21.98 71.564 0.207 7.56 51.31 7.94
9/9/2021 12:30:00 PM 21.94 71.492 0.207 7.56 53.41 7.98
9/9/2021 12:45:00 PM 21.95 71.51 0.207 7.58 41.92 8.01
9/9/2021 1:00:00 PM 21.9 71.42 0.206 7.58 48.84 8.08
9/9/2021 1:15:00 PM 22.02 71.636 0.207 7.59 41.31 8.03
9/9/2021 1:30:00 PM 21.94 71.492 0.207 7.6 43.47 8.06
9/9/2021 1:45:00 PM 21.99 71.582 0.207 7.61 36.68 8.02
9/9/2021 2:00:00 PM 21.99 71.582 0.208 7.63 40 8.05
9/9/2021 2:15:00 PM 21.93 71.474 0.208 7.65 37.61 8.07
9/9/2021 2:30:00 PM 22.02 71.636 0.209 7.65 39.11 8.06
9/9/2021 2:45:00 PM 22.07 71.726 0.209 7.67 33.32 8.06
9/9/2021 3:00:00 PM 22.02 71.636 0.209 7.67 32.31 8.09
9/9/2021 3:15:00 PM 22.15 71.87 0.21 7.69 29.69 8.08
9/9/2021 3:30:00 PM 22.24 72.032 0.211 7.7 32.27 8.11
9/9/2021 3:45:00 PM 22.2 71.96 0.211 7.72 34.49 8.12
9/9/2021 4:00:00 PM 22.18 71.924 0.211 7.73 35.64 8.11
9/9/2021 4:15:00 PM 22.35 72.23 0.212 7.73 26.24 8.07
9/9/2021 4:30:00 PM 22.34 72.212 0.212 7.74 24.4 8.08
9/9/2021 4:45:00 PM 22.4 72.32 0.212 7.74 25.29 8.06
9/9/2021 5:00:00 PM 22.33 72.194 0.212 7.75 24.38 8.06
9/9/2021 5:15:00 PM 22.29 72.122 0.213 7.75 24.42 8.02
9/9/2021 5:30:00 PM 22.39 72.302 0.214 7.74 23.97 8
9/9/2021 5:45:00 PM 22.17 71.906 0.213 7.74 25.63 7.97
9/9/2021 6:00:00 PM 22.14 71.852 0.213 7.72 25.76 7.95
9/9/2021 6:15:00 PM 22.03 71.654 0.213 7.72 23.3 7.9
9/9/2021 6:30:00 PM 22.06 71.708 0.214 7.7 23.13 7.91
9/9/2021 6:45:00 PM 22.14 71.852 0.214 7.69 20.21 7.89
9/9/2021 7:00:00 PM 22.05 71.69 0.215 7.67 23.73 7.88
9/9/2021 7:15:00 PM 21.93 71.474 0.215 7.65 20.41 7.84
9/9/2021 7:30:00 PM 22.02 71.636 0.215 7.62 20.66 7.83
9/9/2021 7:45:00 PM 21.95 71.51 0.216 7.61 21.13 7.82
9/9/2021 8:00:00 PM 21.8 71.24 0.216 7.59 22.1 7.79
9/9/2021 8:15:00 PM 21.8 71.24 0.217 7.58 20.51 7.85
9/9/2021 8:30:00 PM 21.82 71.276 0.217 7.59 18.94 7.83
9/9/2021 8:45:00 PM 21.87 71.366 0.218 7.6 19.68 7.8
9/9/2021 9:00:00 PM 21.9 71.42 0.218 7.6 18.74 7.77
9/9/2021 9:15:00 PM 21.8 71.24 0.217 7.62 21.58 7.8
9/9/2021 9:30:00 PM 21.76 71.168 0.217 7.65 23.4 7.83
9/9/2021 9:45:00 PM 21.89 71.402 0.217 7.68 19.24 7.78
9/9/2021 10:00:00 PM 21.73 71.114 0.218 7.7 18.38 7.79
9/9/2021 10:15:00 PM 21.77 71.186 0.218 7.71 20.53 7.8
9/9/2021 10:30:00 PM 21.81 71.258 0.219 7.73 17.66 7.84
9/9/2021 10:45:00 PM 21.75 71.15 0.219 7.73 18.42 7.87
9/9/2021 11:00:00 PM 21.67 71.006 0.219 7.71 19.33 7.8
9/9/2021 11:15:00 PM 21.66 70.988 0.22 7.71 18.52 7.8
9/9/2021 11:30:00 PM 21.6 70.88 0.22 7.69 18.15 7.79
9/9/2021 11:45:00 PM 21.56 70.808 0.22 7.68 18.7 7.84
9/10/2021 12:00:00 AM 21.52 70.736 0.22 7.67 18.83 7.81
9/10/2021 12:15:00 AM 21.38 70.484 0.22 7.66 19.9 7.81
9/10/2021 12:30:00 AM 21.38 70.484 0.22 7.64 18.79 7.86
9/10/2021 12:45:00 AM 21.4 70.52 0.221 7.63 18.3 7.83
9/10/2021 1:00:00 AM 21.33 70.394 0.221 7.61 17.38 7.86
9/10/2021 1:15:00 AM 21.25 70.25 0.222 7.61 17.16 7.84
9/10/2021 1:30:00 AM 21.31 70.358 0.222 7.61 15.98 7.84
9/10/2021 1:45:00 AM 21.19 70.142 0.222 7.59 18.43 7.84
9/10/2021 2:00:00 AM 21.1 69.98 0.223 7.57 18.08 7.8
9/10/2021 2:15:00 AM 21.23 70.214 0.223 7.56 16.66 7.82
9/10/2021 2:30:00 AM 21.06 69.908 0.223 7.55 16.38 7.84
9/10/2021 2:45:00 AM 20.98 69.764 0.223 7.53 16.9 7.85
9/10/2021 3:00:00 AM 21.01 69.818 0.224 7.51 17.79 7.78
9/10/2021 3:15:00 AM 20.83 69.494 0.225 7.5 19.53 7.78
9/10/2021 3:30:00 AM 20.77 69.386 0.225 7.49 15.71 7.83
9/10/2021 3:45:00 AM 20.91 69.638 0.225 7.48 16.74 7.82
9/10/2021 4:00:00 AM 20.6 69.08 0.226 7.46 18.16 7.86
9/10/2021 4:15:00 AM 20.8 69.44 0.226 7.46 15.97 7.82
9/10/2021 4:30:00 AM 20.65 69.17 0.226 7.46 17.89 7.86
9/10/2021 4:45:00 AM 20.55 68.99 0.227 7.45 18.42 7.85
9/10/2021 5:00:00 AM 20.53 68.954 0.226 7.44 15.13 7.86
9/10/2021 5:15:00 AM 20.45 68.81 0.227 7.43 16.73 7.84
9/10/2021 5:30:00 AM 20.48 68.864 0.227 7.42 16.67 7.9
9/10/2021 5:45:00 AM 20.41 68.738 0.227 7.42 17.67 7.91
9/10/2021 6:00:00 AM 20.59 69.062 0.227 7.41 14.82 7.9
9/10/2021 6:15:00 AM 20.26 68.468 0.228 7.41 17.02 7.93
9/10/2021 6:30:00 AM 20.39 68.702 0.228 7.4 35.08 7.9
9/10/2021 6:45:00 AM 20.19 68.342 0.229 7.39 17.79 7.93
9/10/2021 7:00:00 AM 20.34 68.612 0.228 7.38 14.15 7.88
9/10/2021 7:15:00 AM 20.34 68.612 0.228 7.37 16.16 7.88
9/10/2021 7:30:00 AM 20.28 68.504 0.228 7.37 15.33 7.85
9/10/2021 7:45:00 AM 20.26 68.468 0.228 7.37 14.88 7.92
9/10/2021 8:00:00 AM 20.31 68.558 0.229 7.36 14.08 7.95
9/10/2021 8:15:00 AM 20.19 68.342 0.23 7.35 13.33 8
9/10/2021 8:30:00 AM 20.2 68.36 0.23 7.36 12.8 7.98
9/10/2021 8:45:00 AM 20.13 68.234 0.23 7.35 14.03 8.02
9/10/2021 9:00:00 AM 20.31 68.558 0.229 7.36 11.07 8.06
9/10/2021 9:15:00 AM 20.25 68.45 0.23 7.37 12.41 8.07
9/10/2021 9:30:00 AM 20.36 68.648 0.229 7.36 11.22 8.07
9/10/2021 9:45:00 AM 20.36 68.648 0.23 7.36 11.43 8.07
9/10/2021 10:00:00 AM 20.42 68.756 0.23 7.37 9.64 8.12
9/10/2021 10:15:00 AM 20.5 68.9 0.23 7.37 9.72 8.15
9/10/2021 10:30:00 AM 20.48 68.864 0.231 7.37 10.02 8.13
9/10/2021 10:45:00 AM 20.55 68.99 0.231 7.37 8.85 8.18
9/10/2021 11:00:00 AM 20.47 68.846 0.232 7.38 11.37 8.17
9/10/2021 11:15:00 AM 20.7 69.26 0.231 7.38 8.76 8.16
9/10/2021 11:30:00 AM 20.73 69.314 0.231 7.39 11.95 8.2
9/10/2021 11:45:00 AM 20.77 69.386 0.231 7.4 9.16 8.27
9/10/2021 12:00:00 PM 20.73 69.314 0.231 7.41 10.1 8.29
9/10/2021 12:15:00 PM 20.77 69.386 0.232 7.4 12.28 8.25
9/10/2021 12:30:00 PM 21.03 69.854 0.231 7.41 8.89 8.25
9/10/2021 12:45:00 PM 20.97 69.746 0.232 7.41 9.16 8.29
9/10/2021 1:00:00 PM 20.99 69.782 0.232 7.41 8.08 8.28
9/10/2021 1:15:00 PM 21.1 69.98 0.232 7.42 8.37 8.32
9/10/2021 1:30:00 PM 21.05 69.89 0.232 7.43 8.47 8.33
9/10/2021 1:45:00 PM 20.95 69.71 0.233 7.42 9.7 8.28
9/10/2021 2:00:00 PM 21.09 69.962 0.233 7.43 7.84 8.3
9/10/2021 2:15:00 PM 21.15 70.07 0.233 7.42 8.54 8.32
9/10/2021 2:30:00 PM 21.15 70.07 0.233 7.43 8.2 8.25
9/10/2021 2:45:00 PM 21.13 70.034 0.233 7.43 9.13 8.29
9/10/2021 3:00:00 PM 21.3 70.34 0.232 7.45 11.64 8.27
9/10/2021 3:15:00 PM 21.26 70.268 0.233 7.44 7.3 8.25
9/10/2021 3:30:00 PM 21.27 70.286 0.233 7.43 8.45 8.25
9/10/2021 3:45:00 PM 21.24 70.232 0.233 7.43 7.99 8.29
9/10/2021 4:00:00 PM 21.16 70.088 0.234 7.44 8.84 8.28
9/10/2021 4:15:00 PM 21.2 70.16 0.234 7.43 7.38 8.24
9/10/2021 4:30:00 PM 21.09 69.962 0.234 7.42 7.99 8.24
9/10/2021 4:45:00 PM 21.06 69.908 0.234 7.43 8.11 8.22
9/10/2021 5:00:00 PM 21.14 70.052 0.233 7.43 7.37 8.2
9/10/2021 5:15:00 PM 21.2 70.16 0.233 7.44 7.77 8.2
9/10/2021 5:30:00 PM 21.18 70.124 0.233 7.44 8.05 8.18
9/10/2021 5:45:00 PM 21.23 70.214 0.233 7.44 7.47 8.16
9/10/2021 6:00:00 PM 21.01 69.818 0.235 7.45 8.29 8.17
9/10/2021 6:15:00 PM 21.09 69.962 0.234 7.45 7.91 8.18
9/10/2021 6:30:00 PM 20.99 69.782 0.235 7.47 9.34 8.11
9/10/2021 6:45:00 PM 21.12 70.016 0.234 7.46 13.32 8.01
9/10/2021 7:00:00 PM 21.06 69.908 0.235 7.45 10.69 7.93
9/10/2021 7:15:00 PM 21.1 69.98 0.235 7.44 9.94 7.81
9/10/2021 7:30:00 PM 20.99 69.782 0.235 7.42 9.31 7.79
9/10/2021 7:45:00 PM 21.05 69.89 0.234 7.41 11.07 7.7
9/10/2021 8:00:00 PM 21 69.8 0.234 7.41 10.37 7.75
9/10/2021 8:15:00 PM 20.85 69.53 0.236 7.4 8.98 7.73
9/10/2021 8:30:00 PM 20.85 69.53 0.235 7.4 10.21 7.74
9/10/2021 8:45:00 PM 20.92 69.656 0.235 7.4 10.75 7.75
9/10/2021 9:00:00 PM 20.78 69.404 0.236 7.41 10.4 7.69
9/10/2021 9:15:00 PM 20.82 69.476 0.235 7.39 9.04 7.71
9/10/2021 9:30:00 PM 20.79 69.422 0.235 7.38 10.61 7.72
9/10/2021 9:45:00 PM 20.8 69.44 0.234 7.38 12.4 7.74
9/10/2021 10:00:00 PM 20.76 69.368 0.234 7.39 10.84 7.81
9/10/2021 10:15:00 PM 20.78 69.404 0.234 7.39 10.33 7.74
9/10/2021 10:30:00 PM 20.78 69.404 0.234 7.38 10.15 7.82
9/10/2021 10:45:00 PM 20.7 69.26 0.235 7.38 10.78 7.83
9/10/2021 11:00:00 PM 20.62 69.116 0.235 7.38 11.78 7.85
9/10/2021 11:15:00 PM 20.69 69.242 0.235 7.38 10.59 7.84
9/10/2021 11:30:00 PM 20.66 69.188 0.235 7.38 9.83 7.85
9/10/2021 11:45:00 PM 20.69 69.242 0.234 7.38 10.01 7.82
9/11/2021 12:00:00 AM 20.58 69.044 0.235 7.38 10.74 7.84
9/11/2021 12:15:00 AM 20.56 69.008 0.235 7.37 12.46 7.81
9/11/2021 12:30:00 AM 20.62 69.116 0.234 7.37 10.68 7.82
9/11/2021 12:45:00 AM 20.47 68.846 0.235 7.36 10.72 7.87
9/11/2021 1:00:00 AM 20.41 68.738 0.235 7.37 10.37 7.83
9/11/2021 1:15:00 AM 20.53 68.954 0.235 7.37 10.42 7.77
9/11/2021 1:30:00 AM 20.4 68.72 0.235 7.36 11.33 7.83
9/11/2021 1:45:00 AM 20.26 68.468 0.236 7.35 12.13 7.88
9/11/2021 2:00:00 AM 20.29 68.522 0.236 7.35 9.43 7.85
9/11/2021 2:15:00 AM 20.21 68.378 0.236 7.35 12.21 7.85
9/11/2021 2:30:00 AM 20.12 68.216 0.236 7.35 10.78 7.87
9/11/2021 2:45:00 AM 20.17 68.306 0.235 7.34 10.91 7.84
9/11/2021 3:00:00 AM 20.15 68.27 0.235 7.33 11.29 7.84
9/11/2021 3:15:00 AM 20.1 68.18 0.235 7.33 10.62 7.89
9/11/2021 3:30:00 AM 20.02 68.036 0.236 7.32 10.76 7.89
9/11/2021 3:45:00 AM 20.01 68.018 0.236 7.33 10.33 7.88
9/11/2021 4:00:00 AM 19.78 67.604 0.237 7.31 10.37 7.88
9/11/2021 4:15:00 AM 19.94 67.892 0.236 7.32 10.78 7.86
9/11/2021 4:30:00 AM 19.79 67.622 0.237 7.32 11.87 7.9
9/11/2021 4:45:00 AM 19.73 67.514 0.237 7.32 11.53 7.93
9/11/2021 5:00:00 AM 19.83 67.694 0.235 7.31 10.2 7.93
9/11/2021 5:15:00 AM 19.71 67.478 0.236 7.31 9.78 7.98
9/11/2021 5:30:00 AM 19.75 67.55 0.235 7.31 10.91 7.93
9/11/2021 5:45:00 AM 19.67 67.406 0.235 7.3 10.02 7.92
9/11/2021 6:00:00 AM 19.57 67.226 0.236 7.31 9.4 8
9/11/2021 6:15:00 AM 19.56 67.208 0.236 7.3 10.27 8.04
9/11/2021 6:30:00 AM 19.46 67.028 0.237 7.31 11.87 7.99
9/11/2021 6:45:00 AM 19.39 66.902 0.237 7.3 10.02 8.01
9/11/2021 7:00:00 AM 19.5 67.1 0.236 7.3 10.75 7.96
9/11/2021 7:15:00 AM 19.37 66.866 0.236 7.29 10.43 7.96
9/11/2021 7:30:00 AM 19.47 67.046 0.235 7.28 9.61 7.98
9/11/2021 7:45:00 AM 19.29 66.722 0.236 7.28 19.21 7.95
9/11/2021 8:00:00 AM 19.38 66.884 0.236 7.28 13.28 7.95
9/11/2021 8:15:00 AM 19.41 66.938 0.236 7.27 10.43 7.97
9/11/2021 8:30:00 AM 19.41 66.938 0.236 7.27 8.21 7.99
9/11/2021 8:45:00 AM 19.42 66.956 0.236 7.28 8.65 7.99
9/11/2021 9:00:00 AM 19.35 66.83 0.237 7.27 8.45 8.09
9/11/2021 9:15:00 AM 19.46 67.028 0.236 7.28 9.14 8.11
9/11/2021 9:30:00 AM 19.48 67.064 0.236 7.28 7.45 8.11
9/11/2021 9:45:00 AM 19.67 67.406 0.236 7.28 6.82 8.19
9/11/2021 10:00:00 AM 19.74 67.532 0.235 7.27 8.31 8.17
9/11/2021 10:15:00 AM 19.68 67.424 0.236 7.28 8.57 8.21
9/11/2021 10:30:00 AM 19.79 67.622 0.236 7.28 8.7 8.2
9/11/2021 10:45:00 AM 20 68 0.236 7.29 9.31 8.24
9/11/2021 11:00:00 AM 20.16 68.288 0.236 7.31 10.49 8.29
9/11/2021 11:15:00 AM 20.18 68.324 0.236 7.3 7.21 8.32
9/11/2021 11:30:00 AM 20.37 68.666 0.236 7.32 6.22 8.35
9/11/2021 11:45:00 AM 20.28 68.504 0.236 7.32 7.14 8.45
9/11/2021 12:00:00 PM 20.39 68.702 0.236 7.33 8.48 8.47
9/11/2021 12:15:00 PM 20.48 68.864 0.236 7.34 8 8.52
9/11/2021 12:30:00 PM 20.53 68.954 0.235 7.36 7.79 8.58
9/11/2021 12:45:00 PM 20.69 69.242 0.235 7.37 7.13 8.57
9/11/2021 1:00:00 PM 20.62 69.116 0.236 7.38 6.46 8.53
9/11/2021 1:15:00 PM 20.61 69.098 0.236 7.38 6.55 8.57
9/11/2021 1:30:00 PM 20.54 68.972 0.237 7.4 7.5 8.67
9/11/2021 1:45:00 PM 20.63 69.134 0.237 7.4 7.16 8.67
9/11/2021 2:00:00 PM 20.57 69.026 0.238 7.41 6.92 8.68
9/11/2021 2:15:00 PM 20.74 69.332 0.237 7.41 7.85 8.63
9/11/2021 2:30:00 PM 20.76 69.368 0.237 7.42 7.83 8.65
9/11/2021 2:45:00 PM 20.86 69.548 0.236 7.43 6.34 8.57
9/11/2021 3:00:00 PM 20.83 69.494 0.237 7.43 6.65 8.59
9/11/2021 3:15:00 PM 20.95 69.71 0.236 7.44 7.08 8.56
9/11/2021 3:30:00 PM 20.95 69.71 0.237 7.42 7.39 8.46
9/11/2021 3:45:00 PM 20.98 69.764 0.237 7.43 6.27 8.46
9/11/2021 4:00:00 PM 20.95 69.71 0.237 7.42 5.88 8.46
9/11/2021 4:15:00 PM 20.79 69.422 0.238 7.43 6.49 8.39
9/11/2021 4:30:00 PM 20.99 69.782 0.237 7.42 7.83 8.32
9/11/2021 4:45:00 PM 20.83 69.494 0.238 7.42 6.95 8.35
9/11/2021 5:00:00 PM 20.94 69.692 0.238 7.42 6.31 8.32
9/11/2021 5:15:00 PM 20.88 69.584 0.238 7.41 6.53 8.24
9/11/2021 5:30:00 PM 20.96 69.728 0.237 7.42 7.07 8.26
9/11/2021 5:45:00 PM 20.95 69.71 0.237 7.41 6.38 8.13
9/11/2021 6:00:00 PM 20.98 69.764 0.237 7.4 6.68 8.08
9/11/2021 6:15:00 PM 20.93 69.674 0.237 7.4 6.57 8.18
9/11/2021 6:30:00 PM 21.02 69.836 0.237 7.4 5.5 8.07
9/11/2021 6:45:00 PM 20.88 69.584 0.238 7.4 5.79 8.07
9/11/2021 7:00:00 PM 20.85 69.53 0.238 7.4 5.69 8.11
9/11/2021 7:15:00 PM 20.91 69.638 0.238 7.39 5.63 7.97
9/11/2021 7:30:00 PM 20.9 69.62 0.238 7.38 5.8 8.02
9/11/2021 7:45:00 PM 20.76 69.368 0.238 7.37 6.74 8.02
9/11/2021 8:00:00 PM 20.93 69.674 0.237 7.38 7.66 7.92
9/11/2021 8:15:00 PM 20.85 69.53 0.237 7.37 5.89 7.88
9/11/2021 8:30:00 PM 20.74 69.332 0.238 7.36 7.78 7.92
9/11/2021 8:45:00 PM 20.72 69.296 0.239 7.35 9.15 7.79
9/11/2021 9:00:00 PM 20.68 69.224 0.239 7.34 10.39 7.67
9/11/2021 9:15:00 PM 20.62 69.116 0.24 7.32 10.65 7.63
9/11/2021 9:30:00 PM 20.54 68.972 0.24 7.31 10.94 7.59
9/11/2021 9:45:00 PM 20.59 69.062 0.239 7.3 11.5 7.57
9/11/2021 10:00:00 PM 20.45 68.81 0.24 7.29 9.79 7.58
9/11/2021 10:15:00 PM 20.54 68.972 0.239 7.28 10.35 7.55
9/11/2021 10:30:00 PM 20.51 68.918 0.238 7.28 9.66 7.55
9/11/2021 10:45:00 PM 20.5 68.9 0.239 7.27 10.39 7.55
9/11/2021 11:00:00 PM 20.48 68.864 0.239 7.27 9.14 7.62
9/11/2021 11:15:00 PM 20.46 68.828 0.239 7.27 9.55 7.63
9/11/2021 11:30:00 PM 20.42 68.756 0.239 7.28 10.26 7.6
9/11/2021 11:45:00 PM 20.4 68.72 0.239 7.27 8.97 7.68
9/12/2021 12:00:00 AM 20.45 68.81 0.239 7.27 9.41 7.68
9/12/2021 12:15:00 AM 20.46 68.828 0.239 7.27 9.37 7.65
9/12/2021 12:30:00 AM 20.39 68.702 0.239 7.27 9.1 7.7
9/12/2021 12:45:00 AM 20.43 68.774 0.238 7.28 8.62 7.67
9/12/2021 1:00:00 AM 20.49 68.882 0.237 7.28 8.61 7.72
9/12/2021 1:15:00 AM 20.38 68.684 0.239 7.28 8.11 7.75
9/12/2021 1:30:00 AM 20.41 68.738 0.238 7.27 11 7.77
9/12/2021 1:45:00 AM 20.33 68.594 0.239 7.29 8.36 7.83
9/12/2021 2:00:00 AM 20.33 68.594 0.239 7.28 8.86 7.84
9/12/2021 2:15:00 AM 20.37 68.666 0.238 7.29 10.73 7.81
9/12/2021 2:30:00 AM 20.24 68.432 0.238 7.29 9.29 7.86
9/12/2021 2:45:00 AM 20.27 68.486 0.238 7.29 11.08 7.87
9/12/2021 3:00:00 AM 20.29 68.522 0.237 7.29 10.39 7.85
9/12/2021 3:15:00 AM 20.15 68.27 0.237 7.29 12.01 7.86
9/12/2021 3:30:00 AM 20.22 68.396 0.237 7.29 10.59 7.85
9/12/2021 3:45:00 AM 20.04 68.07201 0.238 7.29 11.67 7.9
9/12/2021 4:00:00 AM 20.11 68.198 0.238 7.29 9.05 7.9
9/12/2021 4:15:00 AM 20.05 68.09 0.238 7.3 11.25 7.93
9/12/2021 4:30:00 AM 20.03 68.054 0.237 7.3 9.84 7.92
9/12/2021 4:45:00 AM 19.98 67.964 0.238 7.29 10.15 7.94
9/12/2021 5:00:00 AM 19.93 67.874 0.238 7.29 9.28 7.93
9/12/2021 5:15:00 AM 20.03 68.054 0.237 7.29 11.77 7.92
9/12/2021 5:30:00 AM 19.96 67.92799 0.237 7.29 9.31 7.92
9/12/2021 5:45:00 AM 19.91 67.838 0.237 7.29 9.51 7.97
9/12/2021 6:00:00 AM 19.94 67.892 0.237 7.29 12.46 7.92
9/12/2021 6:15:00 AM 19.87 67.766 0.237 7.29 8.74 7.92
9/12/2021 6:30:00 AM 19.83 67.694 0.237 7.29 10.96 7.99
9/12/2021 6:45:00 AM 19.78 67.604 0.237 7.3 9.65 7.97
9/12/2021 7:00:00 AM 19.8 67.64 0.237 7.29 12.94 7.99
9/12/2021 7:15:00 AM 19.75 67.55 0.237 7.29 10.63 8.02
9/12/2021 7:30:00 AM 19.83 67.694 0.236 7.29 9.59 7.98
9/12/2021 7:45:00 AM 19.68 67.424 0.237 7.3 8.69 8.05
9/12/2021 8:00:00 AM 19.82 67.676 0.235 7.29 8.56 8.08
9/12/2021 8:15:00 AM 19.71 67.478 0.236 7.29 8.61 8.07
9/12/2021 8:30:00 AM 19.69 67.442 0.237 7.3 8.13 8.13
9/12/2021 8:45:00 AM 19.8 67.64 0.237 7.3 8.11 8.17
9/12/2021 9:00:00 AM 19.87 67.766 0.236 7.3 7.95 8.21
9/12/2021 9:15:00 AM 19.95 67.91 0.236 7.31 8.92 8.26
9/12/2021 9:30:00 AM 19.95 67.91 0.236 7.32 6.65 8.33
9/12/2021 9:45:00 AM 19.94 67.892 0.236 7.32 9 8.37
9/12/2021 10:00:00 AM 20.09 68.162 0.236 7.33 6.53 8.4
9/12/2021 10:15:00 AM 20.26 68.468 0.235 7.33 7.62 8.39
9/12/2021 10:30:00 AM 20.36 68.648 0.235 7.34 7.67 8.46
9/12/2021 10:45:00 AM 20.3 68.54 0.236 7.35 5.79 8.48
9/12/2021 11:00:00 AM 20.41 68.738 0.236 7.36 7.7 8.53
9/12/2021 11:15:00 AM 20.57 69.026 0.236 7.37 5.74 8.56
9/12/2021 11:30:00 AM 20.49 68.882 0.236 7.39 7.12 8.67
9/12/2021 11:45:00 AM 20.74 69.332 0.235 7.4 6.5 8.66
9/12/2021 12:00:00 PM 20.86 69.548 0.235 7.41 6.91 8.64
9/12/2021 12:15:00 PM 20.93 69.674 0.235 7.42 6.99 8.71
9/12/2021 12:30:00 PM 20.9 69.62 0.235 7.43 5.59 8.68
9/12/2021 12:45:00 PM 21.06 69.908 0.235 7.43 5.2 8.73
9/12/2021 1:00:00 PM 21.28 70.304 0.234 7.44 6.15 8.74
9/12/2021 1:15:00 PM 21.33 70.394 0.235 7.45 6.08 8.79
9/12/2021 1:30:00 PM 21.38 70.484 0.235 7.47 5.78 8.84
9/12/2021 1:45:00 PM 21.41 70.538 0.236 7.48 5.51 8.73
9/12/2021 2:00:00 PM 21.45 70.61 0.236 7.49 5.59 8.79
9/12/2021 2:15:00 PM 21.53 70.754 0.236 7.5 5.24 8.77
9/12/2021 2:30:00 PM 21.58 70.844 0.235 7.5 5.75 8.75
9/12/2021 2:45:00 PM 21.55 70.79 0.236 7.52 5.99 8.8
9/12/2021 3:00:00 PM 21.61 70.898 0.235 7.51 6.06 8.79
9/12/2021 3:15:00 PM 21.64 70.952 0.235 7.53 6.44 8.74
9/12/2021 3:30:00 PM 21.76 71.168 0.234 7.53 6.28 8.77
9/12/2021 3:45:00 PM 21.76 71.168 0.235 7.53 5.93 8.69
9/12/2021 4:00:00 PM 21.78 71.204 0.235 7.54 6.08 8.7
9/12/2021 4:15:00 PM 21.75 71.15 0.236 7.54 5.85 8.62
9/12/2021 4:30:00 PM 21.7 71.06 0.236 7.55 7.13 8.7
9/12/2021 4:45:00 PM 21.73 71.114 0.236 7.55 5.63 8.62
9/12/2021 5:00:00 PM 21.71 71.078 0.236 7.55 5.75 8.53
9/12/2021 5:15:00 PM 21.72 71.096 0.236 7.56 5.36 8.49
9/12/2021 5:30:00 PM 21.75 71.15 0.236 7.56 7.36 8.45
9/12/2021 5:45:00 PM 21.77 71.186 0.235 7.55 5.87 8.37
9/12/2021 6:00:00 PM 21.83 71.294 0.235 7.54 5.86 8.32
9/12/2021 6:15:00 PM 21.79 71.222 0.236 7.55 6.76 8.28
9/12/2021 6:30:00 PM 21.78 71.204 0.236 7.55 6.65 8.31
9/12/2021 6:45:00 PM 21.76 71.168 0.237 7.53 7.43 8.19
9/12/2021 7:00:00 PM 21.83 71.294 0.236 7.53 7.11 8.1
9/12/2021 7:15:00 PM 21.8 71.24 0.237 7.51 6.89 7.97
9/12/2021 7:30:00 PM 21.74 71.132 0.237 7.48 6.42 7.95
9/12/2021 7:45:00 PM 21.76 71.168 0.237 7.47 7.38 7.85
9/12/2021 8:00:00 PM 21.66 70.988 0.238 7.44 8.02 7.76
9/12/2021 8:15:00 PM 21.66 70.988 0.237 7.43 7.51 7.75
9/12/2021 8:30:00 PM 21.66 70.988 0.237 7.41 8.07 7.67
9/12/2021 8:45:00 PM 21.67 71.006 0.237 7.4 7.69 7.7
9/12/2021 9:00:00 PM 21.66 70.988 0.237 7.39 8.32 7.64
9/12/2021 9:15:00 PM 21.61 70.898 0.237 7.38 9.47 7.65
9/12/2021 9:30:00 PM 21.64 70.952 0.237 7.38 11.75 7.68
9/12/2021 9:45:00 PM 21.61 70.898 0.237 7.37 7.16 7.69
9/12/2021 10:00:00 PM 21.61 70.898 0.236 7.37 10.06 7.67
9/12/2021 10:15:00 PM 21.61 70.898 0.236 7.37 7.13 7.67
9/12/2021 10:30:00 PM 21.64 70.952 0.235 7.37 6.63 7.69
9/12/2021 10:45:00 PM 21.63 70.934 0.235 7.38 8.69 7.69
9/12/2021 11:00:00 PM 21.56 70.808 0.237 7.37 8.24 7.69
9/12/2021 11:15:00 PM 21.6 70.88 0.236 7.37 8.11 7.64
9/12/2021 11:30:00 PM 21.6 70.88 0.236 7.36 8.44 7.64
9/12/2021 11:45:00 PM 21.56 70.808 0.237 7.36 9.22 7.68
9/13/2021 12:00:00 AM 21.61 70.898 0.236 7.37 9.14 7.67
9/13/2021 12:15:00 AM 21.6 70.88 0.236 7.36 8.42 7.65
9/13/2021 12:30:00 AM 21.6 70.88 0.236 7.36 8.11 7.63
9/13/2021 12:45:00 AM 21.6 70.88 0.236 7.36 7.12 7.65
9/13/2021 1:00:00 AM 21.6 70.88 0.235 7.36 7.3 7.62
9/13/2021 1:15:00 AM 21.54 70.772 0.236 7.36 8.43 7.64
9/13/2021 1:30:00 AM 21.55 70.79 0.236 7.36 8.67 7.64
9/13/2021 1:45:00 AM 21.55 70.79 0.236 7.36 7.94 7.64
9/13/2021 2:00:00 AM 21.49 70.682 0.237 7.35 8.5 7.67
9/13/2021 2:15:00 AM 21.46 70.628 0.237 7.35 7.35 7.67
9/13/2021 2:30:00 AM 21.45 70.61 0.237 7.36 13.14 7.67
9/13/2021 2:45:00 AM 21.41 70.538 0.237 7.35 7.26 7.66
9/13/2021 3:00:00 AM 21.43 70.574 0.236 7.35 10.83 7.63
9/13/2021 3:15:00 AM 21.37 70.466 0.236 7.34 7.33 7.66
9/13/2021 3:30:00 AM 21.43 70.574 0.235 7.34 7.52 7.63
9/13/2021 3:45:00 AM 21.31 70.358 0.236 7.34 7.91 7.67
9/13/2021 4:00:00 AM 21.23 70.214 0.237 7.33 8.63 7.71
9/13/2021 4:15:00 AM 21.22 70.196 0.237 7.33 6.75 7.69
9/13/2021 4:30:00 AM 21.2 70.16 0.237 7.33 8.75 7.72
9/13/2021 4:45:00 AM 21.22 70.196 0.236 7.33 8.85 7.66
9/13/2021 5:00:00 AM 21.13 70.034 0.237 7.32 7.67 7.73
9/13/2021 5:15:00 AM 21.12 70.016 0.237 7.33 7.07 7.7
9/13/2021 5:30:00 AM 21.07 69.926 0.236 7.32 9.68 7.72
9/13/2021 5:45:00 AM 21.11 69.998 0.236 7.33 9.44 7.69
9/13/2021 6:00:00 AM 21.03 69.854 0.236 7.31 10.49 7.69
9/13/2021 6:15:00 AM 21.07 69.926 0.236 7.32 9.08 7.71
9/13/2021 6:30:00 AM 20.99 69.782 0.237 7.31 6.84 7.7
9/13/2021 6:45:00 AM 20.99 69.782 0.236 7.31 7.23 7.73
9/13/2021 7:00:00 AM 20.93 69.674 0.236 7.32 6.77 7.69
9/13/2021 7:15:00 AM 20.96 69.728 0.236 7.31 9.2 7.72
9/13/2021 7:30:00 AM 20.97 69.746 0.235 7.31 8.61 7.71
9/13/2021 7:45:00 AM 20.97 69.746 0.235 7.31 8.56 7.72
9/13/2021 8:00:00 AM 20.87 69.566 0.235 7.31 7.17 7.76
9/13/2021 8:15:00 AM 20.98 69.764 0.235 7.31 11.19 7.77
9/13/2021 8:30:00 AM 20.99 69.782 0.235 7.31 8.71 7.79
9/13/2021 8:45:00 AM 20.94 69.692 0.236 7.33 11 7.91
9/13/2021 9:00:00 AM 21.07 69.926 0.235 7.33 7.09 7.88
9/13/2021 9:15:00 AM 20.99 69.782 0.236 7.33 7.48 7.98
9/13/2021 9:30:00 AM 21.08 69.944 0.235 7.33 11.34 8.09
9/13/2021 9:45:00 AM 21.16 70.088 0.235 7.35 9.85 8.12
9/13/2021 10:00:00 AM 21.24 70.232 0.234 7.36 7.93 8.19
9/13/2021 10:15:00 AM 21.34 70.412 0.234 7.36 7.33 8.25
9/13/2021 10:30:00 AM 21.34 70.412 0.235 7.39 13.56 8.27
9/13/2021 10:45:00 AM 21.51 70.718 0.234 7.39 8.85 8.34
9/13/2021 11:00:00 AM 21.59 70.862 0.234 7.4 5.69 8.36
9/13/2021 11:15:00 AM 21.62 70.916 0.235 7.42 5.37 8.46
9/13/2021 11:30:00 AM 21.72 71.096 0.235 7.43 6.01 8.47
9/13/2021 11:45:00 AM 21.86 71.348 0.234 7.44 6.4 8.58
9/13/2021 12:00:00 PM 21.83 71.294 0.235 7.45 6.19 8.57
9/13/2021 12:15:00 PM 22.09 71.762 0.233 7.47 6.36 8.54
9/13/2021 12:30:00 PM 22.13 71.834 0.233 7.48 8.2 8.51
9/13/2021 12:45:00 PM 22.12 71.816 0.233 7.5 10.93 8.68
9/13/2021 1:00:00 PM 22.11 71.798 0.234 7.51 10.96 8.62
9/13/2021 1:15:00 PM 22.05 71.69 0.235 7.52 13.68 8.55
9/13/2021 1:30:00 PM 22.18 71.924 0.234 7.54 22.23 8.51
9/13/2021 1:45:00 PM 22.17 71.906 0.235 7.56 38.56 8.52
9/13/2021 2:00:00 PM 22.21 71.978 0.235 7.58 15.79 8.52
9/13/2021 2:15:00 PM 22.25 72.05 0.234 7.6 10.86 8.57
9/13/2021 2:30:00 PM 22.29 72.122 0.234 7.59 9.02 8.63
9/13/2021 2:45:00 PM 22.34 72.212 0.234 7.6 7.03 8.64
9/13/2021 3:00:00 PM 22.36 72.248 0.234 7.6 7.88 8.65
9/13/2021 3:15:00 PM 22.43 72.374 0.234 7.61 7.72 8.64
9/13/2021 3:30:00 PM 22.48 72.464 0.233 7.6 7.24 8.6
9/13/2021 3:45:00 PM 22.51 72.518 0.234 7.61 6.14 8.56
9/13/2021 4:00:00 PM 22.49 72.482 0.235 7.61 6.43 8.55
9/13/2021 4:15:00 PM 22.51 72.518 0.234 7.62 6.66 8.53
9/13/2021 4:30:00 PM 22.55 72.59 0.234 7.61 6.03 8.49
9/13/2021 4:45:00 PM 22.53 72.554 0.234 7.62 6.49 8.42
9/13/2021 5:00:00 PM 22.58 72.644 0.234 7.62 11.59 8.38
9/13/2021 5:15:00 PM 22.59 72.662 0.234 7.62 5.11 8.34
9/13/2021 5:30:00 PM 22.6 72.68 0.233 7.63 5.91 8.37
9/13/2021 5:45:00 PM 22.61 72.698 0.233 7.63 5.69 8.23
9/13/2021 6:00:00 PM 22.57 72.626 0.234 7.62 4.83 8.19
9/13/2021 6:15:00 PM 22.51 72.518 0.235 7.61 6.21 8.12
9/13/2021 6:30:00 PM 22.51 72.518 0.235 7.6 6.88 8.01
9/13/2021 6:45:00 PM 22.51 72.518 0.235 7.58 8.15 7.94
9/13/2021 7:00:00 PM 22.49 72.482 0.235 7.57 6.29 7.9
9/13/2021 7:15:00 PM 22.47 72.446 0.235 7.56 6.72 7.86
9/13/2021 7:30:00 PM 22.46 72.42799 0.235 7.56 7.44 7.81
9/13/2021 7:45:00 PM 22.45 72.41 0.235 7.55 6.3 7.76
9/13/2021 8:00:00 PM 22.5 72.5 0.234 7.53 7.38 7.66
9/13/2021 8:15:00 PM 22.47 72.446 0.234 7.52 7.18 7.64
9/13/2021 8:30:00 PM 22.46 72.42799 0.235 7.52 8.36 7.59
9/13/2021 8:45:00 PM 22.43 72.374 0.236 7.51 8.29 7.55
9/13/2021 9:00:00 PM 22.4 72.32 0.236 7.5 7.2 7.44
9/13/2021 9:15:00 PM 22.38 72.284 0.236 7.49 6.78 7.51
9/13/2021 9:30:00 PM 22.34 72.212 0.236 7.49 6.94 7.5
9/13/2021 9:45:00 PM 22.33 72.194 0.236 7.48 6.48 7.5
9/13/2021 10:00:00 PM 22.35 72.23 0.235 7.47 6.99 7.48
9/13/2021 10:15:00 PM 22.36 72.248 0.235 7.46 6.4 7.42
9/13/2021 10:30:00 PM 22.37 72.266 0.234 7.47 7.58 7.41
9/13/2021 10:45:00 PM 22.31 72.158 0.235 7.46 8.69 7.38
9/13/2021 11:00:00 PM 22.33 72.194 0.235 7.46 10.97 7.4
9/13/2021 11:15:00 PM 22.3 72.14 0.235 7.46 7.16 7.39
9/13/2021 11:30:00 PM 22.29 72.122 0.235 7.44 6.87 7.34
9/13/2021 11:45:00 PM 22.3 72.14 0.235 7.44 7.68 7.36
9/14/2021 12:00:00 AM 22.31 72.158 0.235 7.44 7.13 7.37
9/14/2021 12:15:00 AM 22.23 72.014 0.236 7.43 6.01 7.37
9/14/2021 12:30:00 AM 22.26 72.068 0.235 7.42 7.45 7.37
9/14/2021 12:45:00 AM 22.26 72.068 0.235 7.42 7.52 7.34
9/14/2021 1:00:00 AM 22.23 72.014 0.235 7.42 9.74 7.3
9/14/2021 1:15:00 AM 22.28 72.104 0.234 7.41 6.79 7.28
9/14/2021 1:30:00 AM 22.23 72.014 0.235 7.41 7.79 7.33
9/14/2021 1:45:00 AM 22.21 71.978 0.235 7.41 7.53 7.32
9/14/2021 2:00:00 AM 22.18 71.924 0.236 7.4 7.79 7.35
9/14/2021 2:15:00 AM 22.17 71.906 0.236 7.4 12.18 7.34
9/14/2021 2:30:00 AM 22.13 71.834 0.236 7.4 9.32 7.32
9/14/2021 2:45:00 AM 22.12 71.816 0.236 7.39 10.37 7.35
9/14/2021 3:00:00 AM 22.11 71.798 0.236 7.38 28.89 7.33
9/14/2021 3:15:00 AM 22.08 71.744 0.236 7.38 8.07 7.34
9/14/2021 3:30:00 AM 22.08 71.744 0.235 7.38 9.45 7.35
9/14/2021 3:45:00 AM 22 71.6 0.236 7.36 10.21 7.32
9/14/2021 4:00:00 AM 21.93 71.474 0.237 7.36 8.46 7.31
9/14/2021 4:15:00 AM 21.93 71.474 0.237 7.35 9.05 7.33
9/14/2021 4:30:00 AM 21.89 71.402 0.237 7.35 8.4 7.27
9/14/2021 4:45:00 AM 21.86 71.348 0.237 7.35 10.17 7.33
9/14/2021 5:00:00 AM 21.8 71.24 0.237 7.33 8.61 7.33
9/14/2021 5:15:00 AM 21.77 71.186 0.237 7.34 8.37 7.33
9/14/2021 5:30:00 AM 21.7 71.06 0.237 7.34 7.69 7.28
9/14/2021 5:45:00 AM 21.69 71.042 0.236 7.33 8.41 7.32
9/14/2021 6:00:00 AM 21.67 71.006 0.236 7.32 10.06 7.34
9/14/2021 6:15:00 AM 21.6 70.88 0.237 7.31 8.84 7.31
9/14/2021 6:30:00 AM 21.59 70.862 0.237 7.3 9.41 7.3
9/14/2021 6:45:00 AM 21.56 70.808 0.237 7.31 8.27 7.31
9/14/2021 7:00:00 AM 21.52 70.736 0.237 7.31 7.79 7.37
9/14/2021 7:15:00 AM 21.48 70.664 0.237 7.3 11 7.44
9/14/2021 7:30:00 AM 21.37 70.466 0.237 7.29 11.07 7.4
9/14/2021 7:45:00 AM 21.44 70.592 0.236 7.29 13.5 7.43
9/14/2021 8:00:00 AM 21.41 70.538 0.236 7.3 18.71 7.49
9/14/2021 8:15:00 AM 21.37 70.466 0.236 7.3 19.71 7.53
9/14/2021 8:30:00 AM 21.43 70.574 0.235 7.3 13.89 7.51
9/14/2021 8:45:00 AM 21.46 70.628 0.236 7.31 8.88 7.54
9/14/2021 9:00:00 AM 21.45 70.61 0.236 7.31 17.59 7.67
9/14/2021 9:15:00 AM 21.48 70.664 0.236 7.32 24.59 7.73
9/14/2021 9:30:00 AM 21.51 70.718 0.236 7.33 17.73 7.81
9/14/2021 9:45:00 AM 21.59 70.862 0.235 7.34 24.63 7.86
9/14/2021 10:00:00 AM 21.66 70.988 0.235 7.35 8.15 7.99
9/14/2021 10:15:00 AM 21.74 71.132 0.234 7.36 11.27 8.04
9/14/2021 10:30:00 AM 21.82 71.276 0.234 7.38 15.07 8.12
9/14/2021 10:45:00 AM 21.91 71.438 0.234 7.39 10.43 8.12
9/14/2021 11:00:00 AM 21.98 71.564 0.234 7.41 10.11 8.25
9/14/2021 11:15:00 AM 22.04 71.672 0.235 7.43 8.18 8.3
9/14/2021 11:30:00 AM 22.14 71.852 0.234 7.44 8.97 8.36
9/14/2021 11:45:00 AM 22.23 72.014 0.234 7.46 8.79 8.43
9/14/2021 12:00:00 PM 22.25 72.05 0.234 7.48 7.34 8.44
9/14/2021 12:15:00 PM 22.43 72.374 0.233 7.49 8.12 8.46
9/14/2021 12:30:00 PM 22.49 72.482 0.233 7.51 7.41 8.46
9/14/2021 12:45:00 PM 22.57 72.626 0.233 7.52 7.37 8.49
9/14/2021 1:00:00 PM 22.68 72.824 0.233 7.55 8.64 8.53
9/14/2021 1:15:00 PM 22.78 73.004 0.232 7.57 9.89 8.55
9/14/2021 1:30:00 PM 22.79 73.022 0.233 7.58 6.52 8.56
9/14/2021 1:45:00 PM 22.9 73.22 0.233 7.61 18.95 8.56
9/14/2021 2:00:00 PM 22.9 73.22 0.234 7.63 28.52 8.64
9/14/2021 2:15:00 PM 22.88 73.184 0.234 7.64 42.25 8.64
9/14/2021 2:30:00 PM 23.01 73.418 0.233 7.66 21.25 8.51
9/14/2021 2:45:00 PM 23.09 73.562 0.233 7.68 13.79 8.56
9/14/2021 3:00:00 PM 23.12 73.616 0.233 7.7 9.04 8.58
9/14/2021 3:15:00 PM 23 73.4 0.234 7.7 7.77 8.66
9/14/2021 3:30:00 PM 22.94 73.292 0.236 7.71 6.8 8.69
9/14/2021 3:45:00 PM 22.91 73.238 0.237 7.72 5.93 8.87
9/14/2021 4:00:00 PM 22.87 73.166 0.239 7.73 6.37 8.87
9/14/2021 4:15:00 PM 22.77 72.986 0.241 7.73 10.96 8.8
9/14/2021 4:30:00 PM 22.69 72.842 0.241 7.71 7.01 8.8
9/14/2021 4:45:00 PM 22.66 72.788 0.242 7.68 5.69 8.66
9/14/2021 5:00:00 PM 22.59 72.662 0.242 7.67 5.38 8.61
9/14/2021 5:15:00 PM 22.58 72.644 0.242 7.65 5.1 8.58
9/14/2021 5:30:00 PM 22.56 72.608 0.242 7.64 4.93 8.52
9/14/2021 5:45:00 PM 22.54 72.57201 0.241 7.62 4.46 8.46
9/14/2021 6:00:00 PM 22.55 72.59 0.241 7.61 5.05 8.35
9/14/2021 6:15:00 PM 22.53 72.554 0.241 7.59 4.65 8.31
9/14/2021 6:30:00 PM 22.52 72.536 0.241 7.57 4.93 8.2
9/14/2021 6:45:00 PM 22.47 72.446 0.242 7.55 5 8.11
9/14/2021 7:00:00 PM 22.45 72.41 0.242 7.53 5.53 8.04
9/14/2021 7:15:00 PM 22.42 72.356 0.242 7.52 6.85 7.93
9/14/2021 7:30:00 PM 22.39 72.302 0.242 7.5 5.81 7.84
9/14/2021 7:45:00 PM 22.34 72.212 0.242 7.48 5.45 7.74
9/14/2021 8:00:00 PM 22.33 72.194 0.242 7.46 5.6 7.64
9/14/2021 8:15:00 PM 22.32 72.176 0.241 7.44 5.73 7.55
9/14/2021 8:30:00 PM 22.29 72.122 0.241 7.42 6.13 7.51
9/14/2021 8:45:00 PM 22.27 72.086 0.241 7.4 6.61 7.41
9/14/2021 9:00:00 PM 22.24 72.032 0.242 7.38 6.88 7.33
9/14/2021 9:15:00 PM 22.21 71.978 0.242 7.37 7.45 7.38
9/14/2021 9:30:00 PM 22.19 71.942 0.242 7.35 6.93 7.36
9/14/2021 9:45:00 PM 22.18 71.924 0.242 7.35 6.93 7.31
9/14/2021 10:00:00 PM 22.18 71.924 0.242 7.34 6.96 7.3
9/14/2021 10:15:00 PM 22.17 71.906 0.241 7.33 6.77 7.26
9/14/2021 10:30:00 PM 22.16 71.888 0.241 7.33 8.11 7.23
9/14/2021 10:45:00 PM 22.18 71.924 0.24 7.32 7.43 7.19
9/14/2021 11:00:00 PM 22.17 71.906 0.24 7.31 7.3 7.13
9/14/2021 11:15:00 PM 22.18 71.924 0.24 7.3 8.5 7.17
9/14/2021 11:30:00 PM 22.17 71.906 0.241 7.3 7.35 7.12
9/14/2021 11:45:00 PM 22.16 71.888 0.241 7.28 9.5 7.12
9/15/2021 12:00:00 AM 22.16 71.888 0.24 7.29 8.08 7.16
9/15/2021 12:15:00 AM 22.17 71.906 0.24 7.29 6.99 7.14
9/15/2021 12:30:00 AM 22.17 71.906 0.24 7.3 7.97 7.15
9/15/2021 12:45:00 AM 22.17 71.906 0.24 7.29 8.12 7.19
9/15/2021 1:00:00 AM 22.18 71.924 0.24 7.29 7.57 7.12
9/15/2021 1:15:00 AM 22.19 71.942 0.239 7.29 7.44 7.09
9/15/2021 1:30:00 AM 22.19 71.942 0.239 7.28 6.5 7.08
9/15/2021 1:45:00 AM 22.18 71.924 0.239 7.27 7.7 7.02
9/15/2021 2:00:00 AM 22.15 71.87 0.24 7.27 7.05 7.03
9/15/2021 2:15:00 AM 22.13 71.834 0.24 7.27 7.95 7.06
9/15/2021 2:30:00 AM 22.12 71.816 0.24 7.27 7.63 7
9/15/2021 2:45:00 AM 22.12 71.816 0.24 7.26 7.89 7.03
9/15/2021 3:00:00 AM 22.1 71.78 0.24 7.26 8.17 7.06
9/15/2021 3:15:00 AM 22.09 71.762 0.239 7.27 6.47 7.05
9/15/2021 3:30:00 AM 22.1 71.78 0.239 7.26 6.63 7.05
9/15/2021 3:45:00 AM 22.1 71.78 0.238 7.26 7.79 7.07
9/15/2021 4:00:00 AM 22.08 71.744 0.238 7.27 7.47 7.03
9/15/2021 4:15:00 AM 22.04 71.672 0.239 7.27 6.96 7.05
9/15/2021 4:30:00 AM 22.01 71.618 0.239 7.27 8.39 7.09
9/15/2021 4:45:00 AM 22 71.6 0.239 7.27 7.74 7.1
9/15/2021 5:00:00 AM 21.99 71.582 0.239 7.28 9.6 7.08
9/15/2021 5:15:00 AM 21.96 71.528 0.239 7.28 11.5 7.07
9/15/2021 5:30:00 AM 21.93 71.474 0.239 7.27 7.37 7.1
9/15/2021 5:45:00 AM 21.89 71.402 0.239 7.28 8.03 7.13
9/15/2021 6:00:00 AM 21.88 71.384 0.239 7.28 9.2 7.09
9/15/2021 6:15:00 AM 21.88 71.384 0.238 7.28 6.96 7.09
9/15/2021 6:30:00 AM 21.84 71.312 0.239 7.27 8.83 7.07
9/15/2021 6:45:00 AM 21.78 71.204 0.239 7.27 8.4 7.09
9/15/2021 7:00:00 AM 21.73 71.114 0.24 7.26 15.12 7.11
9/15/2021 7:15:00 AM 21.74 71.132 0.239 7.26 8.23 7.08
9/15/2021 7:30:00 AM 21.75 71.15 0.238 7.25 6.58 7.05
9/15/2021 7:45:00 AM 21.73 71.114 0.238 7.25 7.05 7.07
9/15/2021 8:00:00 AM 21.74 71.132 0.237 7.25 8.57 7.08
9/15/2021 8:15:00 AM 21.75 71.15 0.236 7.25 6.32 7.09
9/15/2021 8:30:00 AM 21.73 71.114 0.237 7.24 10.46 7.15
9/15/2021 8:45:00 AM 21.77 71.186 0.236 7.25 7.11 7.24
9/15/2021 9:00:00 AM 21.79 71.222 0.237 7.26 6.21 7.32
9/15/2021 9:15:00 AM 21.84 71.312 0.237 7.28 6.15 7.45
9/15/2021 9:30:00 AM 21.9 71.42 0.236 7.28 6.19 7.51
9/15/2021 9:45:00 AM 21.96 71.528 0.236 7.3 5.32 7.64
9/15/2021 10:00:00 AM 22.06 71.708 0.235 7.31 5.47 7.69
9/15/2021 10:15:00 AM 22.16 71.888 0.234 7.33 8.28 7.76
9/15/2021 10:30:00 AM 22.19 71.942 0.235 7.35 5.2 7.84
9/15/2021 10:45:00 AM 22.33 72.194 0.234 7.36 5.7 7.87
9/15/2021 11:00:00 AM 22.42 72.356 0.234 7.38 5.88 7.95
9/15/2021 11:15:00 AM 22.51 72.518 0.235 7.4 5.37 8.02
9/15/2021 11:30:00 AM 22.59 72.662 0.235 7.41 5.76 8.08
9/15/2021 11:45:00 AM 22.7 72.86 0.235 7.42 7.73 8.13
9/15/2021 12:00:00 PM 22.79 73.022 0.235 7.45 5.34 8.18
9/15/2021 12:15:00 PM 22.97 73.346 0.234 7.46 5.48 8.22
9/15/2021 12:30:00 PM 23.1 73.58 0.233 7.48 4.7 8.2
9/15/2021 12:45:00 PM 23.12 73.616 0.234 7.5 4.35 8.29
9/15/2021 1:00:00 PM 23.24 73.832 0.234 7.52 7.26 8.36
9/15/2021 1:15:00 PM 23.36 74.048 0.233 7.54 4.91 8.37
9/15/2021 1:30:00 PM 23.47 74.246 0.233 7.55 4.66 8.43
9/15/2021 1:45:00 PM 23.52 74.336 0.233 7.58 5.44 8.46
9/15/2021 2:00:00 PM 23.54 74.372 0.234 7.59 4.63 8.49
9/15/2021 2:15:00 PM 23.6 74.48 0.234 7.61 4.95 8.42
9/15/2021 2:30:00 PM 23.64 74.552 0.234 7.63 4.79 8.43
9/15/2021 2:45:00 PM 23.68 74.624 0.234 7.65 6.01 8.44
9/15/2021 3:00:00 PM 23.75 74.75 0.233 7.66 4.83 8.37
9/15/2021 3:15:00 PM 23.74 74.732 0.233 7.68 5.26 8.37
9/15/2021 3:30:00 PM 23.84 74.912 0.232 7.68 4.51 8.39
9/15/2021 3:45:00 PM 23.87 74.966 0.232 7.7 5.24 8.31
9/15/2021 4:00:00 PM 23.89 75.002 0.233 7.7 4.42 8.29
9/15/2021 4:15:00 PM 23.88 74.984 0.233 7.7 4.97 8.25
9/15/2021 4:30:00 PM 23.82 74.876 0.234 7.72 5.11 8.15
9/15/2021 4:45:00 PM 23.83 74.894 0.234 7.71 4.88 8.11
9/15/2021 5:00:00 PM 23.81 74.858 0.234 7.71 5.92 8.02
9/15/2021 5:15:00 PM 23.81 74.858 0.233 7.69 6.23 7.93
9/15/2021 5:30:00 PM 23.8 74.84 0.233 7.68 5.91 7.81
9/15/2021 5:45:00 PM 23.76 74.768 0.233 7.67 5.34 7.77
9/15/2021 6:00:00 PM 23.75 74.75 0.233 7.65 6.14 7.62
9/15/2021 6:15:00 PM 23.73 74.714 0.232 7.64 5.49 7.56
9/15/2021 6:30:00 PM 23.63 74.534 0.233 7.62 4.66 7.51
9/15/2021 6:45:00 PM 23.57 74.426 0.234 7.6 5.22 7.47
9/15/2021 7:00:00 PM 23.48 74.264 0.234 7.59 6.46 7.4
9/15/2021 7:15:00 PM 23.41 74.138 0.234 7.58 7.88 7.35
9/15/2021 7:30:00 PM 23.32 73.976 0.234 7.58 6.96 7.3
9/15/2021 7:45:00 PM 23.25 73.85 0.234 7.55 5.99 7.22
9/15/2021 8:00:00 PM 23.21 73.778 0.234 7.54 5.39 7.17
9/15/2021 8:15:00 PM 23.17 73.706 0.233 7.52 6.67 7.13
9/15/2021 8:30:00 PM 23.14 73.652 0.233 7.51 7.21 7.05
9/15/2021 8:45:00 PM 23.09 73.562 0.231 7.49 6.62 6.98
9/15/2021 9:00:00 PM 23.03 73.454 0.232 7.48 8.5 7.04
9/15/2021 9:15:00 PM 22.98 73.364 0.232 7.47 8.36 7.03
9/15/2021 9:30:00 PM 22.95 73.31 0.233 7.47 7.85 7.01
9/15/2021 9:45:00 PM 22.93 73.274 0.232 7.45 7.27 6.97
9/15/2021 10:00:00 PM 22.91 73.238 0.231 7.43 7.15 6.92
9/15/2021 10:15:00 PM 22.89 73.202 0.231 7.42 7.49 6.88
9/15/2021 10:30:00 PM 22.91 73.238 0.23 7.41 7.93 6.85
9/15/2021 10:45:00 PM 22.91 73.238 0.23 7.41 8.43 6.86
9/15/2021 11:00:00 PM 22.94 73.292 0.23 7.41 8.29 6.85
9/15/2021 11:15:00 PM 22.96 73.328 0.231 7.41 7.81 6.86
9/15/2021 11:30:00 PM 22.97 73.346 0.231 7.41 8.42 6.92
9/15/2021 11:45:00 PM 22.97 73.346 0.232 7.42 6.98 6.96
9/16/2021 12:00:00 AM 22.99 73.382 0.232 7.43 8.14 6.95
9/16/2021 12:15:00 AM 23 73.4 0.231 7.44 8.68 6.96
9/16/2021 12:30:00 AM 23 73.4 0.231 7.45 8.48 7
9/16/2021 12:45:00 AM 23 73.4 0.231 7.45 7.56 6.92
9/16/2021 1:00:00 AM 22.98 73.364 0.231 7.43 9.03 6.89
9/16/2021 1:15:00 AM 22.96 73.328 0.232 7.44 7.62 6.84
9/16/2021 1:30:00 AM 22.93 73.274 0.233 7.42 8.79 6.85
9/16/2021 1:45:00 AM 22.92 73.256 0.233 7.41 19.01 6.87
9/16/2021 2:00:00 AM 22.93 73.274 0.233 7.41 8.2 6.84
9/16/2021 2:15:00 AM 22.91 73.238 0.233 7.4 10.18 6.81
9/16/2021 2:30:00 AM 22.9 73.22 0.233 7.39 9.74 6.8
9/16/2021 2:45:00 AM 22.91 73.238 0.232 7.39 8.96 6.81
9/16/2021 3:00:00 AM 22.88 73.184 0.232 7.38 7.6 6.8
9/16/2021 3:15:00 AM 22.87 73.166 0.232 7.39 9.77 6.82
9/16/2021 3:30:00 AM 22.89 73.202 0.231 7.37 7.86 6.79
9/16/2021 3:45:00 AM 22.84 73.112 0.232 7.38 10.45 6.79
9/16/2021 4:00:00 AM 22.81 73.058 0.232 7.38 8.88 6.81
9/16/2021 4:15:00 AM 22.78 73.004 0.232 7.39 8.56 6.85
9/16/2021 4:30:00 AM 22.75 72.95 0.232 7.38 7.93 6.87
9/16/2021 4:45:00 AM 22.73 72.914 0.232 7.38 9.53 6.88
9/16/2021 5:00:00 AM 22.73 72.914 0.232 7.39 9.56 6.88
9/16/2021 5:15:00 AM 22.66 72.788 0.233 7.38 9.24 6.9
9/16/2021 5:30:00 AM 22.62 72.716 0.233 7.37 9.06 6.86
9/16/2021 5:45:00 AM 22.63 72.734 0.232 7.37 9.68 6.81
9/16/2021 6:00:00 AM 22.6 72.68 0.232 7.36 9.37 6.88
9/16/2021 6:15:00 AM 22.58 72.644 0.232 7.35 9.32 6.79
9/16/2021 6:30:00 AM 22.53 72.554 0.232 7.34 8.89 6.83
9/16/2021 6:45:00 AM 22.47 72.446 0.233 7.34 10.62 6.8
9/16/2021 7:00:00 AM 22.46 72.42799 0.232 7.34 8.13 6.85
9/16/2021 7:15:00 AM 22.45 72.41 0.231 7.33 10.63 6.87
9/16/2021 7:30:00 AM 22.43 72.374 0.231 7.34 8.36 6.88
9/16/2021 7:45:00 AM 22.43 72.374 0.23 7.33 7.61 6.88
9/16/2021 8:00:00 AM 22.39 72.302 0.23 7.34 7.83 6.98
9/16/2021 8:15:00 AM 22.39 72.302 0.23 7.35 6.93 7.01
9/16/2021 8:30:00 AM 22.41 72.338 0.23 7.36 8.36 7.05
9/16/2021 8:45:00 AM 22.39 72.302 0.23 7.37 5.96 7.13
9/16/2021 9:00:00 AM 22.36 72.248 0.231 7.37 6.06 7.2
9/16/2021 9:15:00 AM 22.38 72.284 0.23 7.38 6.39 7.29
9/16/2021 9:30:00 AM 22.41 72.338 0.23 7.39 6.06 7.37
9/16/2021 9:45:00 AM 22.43 72.374 0.229 7.4 5.62 7.47
9/16/2021 10:00:00 AM 22.46 72.42799 0.229 7.41 5.66 7.52
9/16/2021 10:15:00 AM 22.5 72.5 0.229 7.43 4.99 7.62
9/16/2021 10:30:00 AM 22.53 72.554 0.228 7.44 6.06 7.75
9/16/2021 10:45:00 AM 22.58 72.644 0.228 7.47 5.92 7.8
9/16/2021 11:00:00 AM 22.66 72.788 0.228 7.49 5.19 7.94
9/16/2021 11:15:00 AM 22.7 72.86 0.228 7.51 4.5 8.01
9/16/2021 11:30:00 AM 22.68 72.824 0.229 7.53 5.79 8.11
9/16/2021 11:45:00 AM 22.77 72.986 0.228 7.55 6.02 8.13
9/16/2021 12:00:00 PM 22.9 73.22 0.227 7.58 5.5 8.21
9/16/2021 12:15:00 PM 23 73.4 0.227 7.6 5.3 8.27
9/16/2021 12:30:00 PM 23.14 73.652 0.227 7.64 4.86 8.39
9/16/2021 12:45:00 PM 23.23 73.814 0.226 7.66 5.76 8.31
9/16/2021 1:00:00 PM 23.24 73.832 0.227 7.68 5.01 8.44
9/16/2021 1:15:00 PM 23.28 73.904 0.227 7.69 5.54 8.39
9/16/2021 1:30:00 PM 23.37 74.066 0.226 7.7 5.36 8.32
9/16/2021 1:45:00 PM 23.41 74.138 0.228 7.71 6.16 8.33
9/16/2021 2:00:00 PM 23.5 74.3 0.228 7.71 5.46 8.37
9/16/2021 2:15:00 PM 23.59 74.462 0.227 7.73 5.02 8.37
9/16/2021 2:30:00 PM 23.67 74.606 0.227 7.74 5.39 8.4
9/16/2021 2:45:00 PM 23.65 74.57 0.228 7.76 5.31 8.42
9/16/2021 3:00:00 PM 23.71 74.67799 0.227 7.78 4.63 8.39
9/16/2021 3:15:00 PM 23.76 74.768 0.227 7.8 5.93 8.41
9/16/2021 3:30:00 PM 23.76 74.768 0.226 7.83 4.69 8.33
9/16/2021 3:45:00 PM 23.73 74.714 0.226 7.83 4.69 8.17
9/16/2021 4:00:00 PM 23.73 74.714 0.227 7.83 8.21 8.11
9/16/2021 4:15:00 PM 23.71 74.67799 0.227 7.84 5.04 8.04
9/16/2021 4:30:00 PM 23.69 74.642 0.227 7.84 5.22 8.06
9/16/2021 4:45:00 PM 23.65 74.57 0.227 7.84 5.14 7.97
9/16/2021 5:00:00 PM 23.62 74.516 0.227 7.83 4.33 7.92
9/16/2021 5:15:00 PM 23.64 74.552 0.227 7.81 4.73 7.79
9/16/2021 5:30:00 PM 23.63 74.534 0.227 7.81 4.9 7.72
9/16/2021 5:45:00 PM 23.61 74.498 0.227 7.78 5.7 7.74
9/16/2021 6:00:00 PM 23.62 74.516 0.226 7.76 5.41 7.6
9/16/2021 6:15:00 PM 23.55 74.39 0.226 7.75 4.87 7.5
9/16/2021 6:30:00 PM 23.53 74.354 0.227 7.75 6.88 7.49
9/16/2021 6:45:00 PM 23.47 74.246 0.227 7.73 5.14 7.43
9/16/2021 7:00:00 PM 23.45 74.21 0.227 7.71 4.86 7.42
9/16/2021 7:15:00 PM 23.36 74.048 0.228 7.69 5.34 7.29
9/16/2021 7:30:00 PM 23.35 74.03 0.228 7.67 6.06 7.23
9/16/2021 7:45:00 PM 23.31 73.958 0.228 7.65 5.79 7.14
9/16/2021 8:00:00 PM 23.29 73.922 0.228 7.62 4.99 7.11
9/16/2021 8:15:00 PM 23.29 73.922 0.228 7.6 6.16 7.05
9/16/2021 8:30:00 PM 23.26 73.868 0.228 7.57 7.51 6.98
9/16/2021 8:45:00 PM 23.22 73.796 0.229 7.53 7.5 6.9
9/16/2021 9:00:00 PM 23.2 73.76 0.229 7.51 7.25 6.85
9/16/2021 9:15:00 PM 23.15 73.67 0.23 7.48 9.49 6.83
9/16/2021 9:30:00 PM 23.15 73.67 0.23 7.45 10.23 6.75
9/16/2021 9:45:00 PM 23.11 73.598 0.231 7.44 8.59 6.71
9/16/2021 10:00:00 PM 23.13 73.634 0.23 7.42 8.34 6.64
9/16/2021 10:15:00 PM 23.08 73.544 0.231 7.4 8.93 6.64
9/16/2021 10:30:00 PM 23.1 73.58 0.23 7.4 7.75 6.73
9/16/2021 10:45:00 PM 23.09 73.562 0.23 7.4 7.9 6.69
9/16/2021 11:00:00 PM 23.11 73.598 0.229 7.39 7.22 6.66
9/16/2021 11:15:00 PM 23.08 73.544 0.23 7.39 7.87 6.72
9/16/2021 11:30:00 PM 23.06 73.508 0.23 7.38 8.51 6.72
9/16/2021 11:45:00 PM 23.06 73.508 0.229 7.39 8.82 6.76
9/17/2021 12:00:00 AM 23.04 73.472 0.23 7.39 7.31 6.73
9/17/2021 12:15:00 AM 23.04 73.472 0.23 7.39 7.05 6.72
9/17/2021 12:30:00 AM 23.04 73.472 0.229 7.39 8.61 6.69
9/17/2021 12:45:00 AM 23.01 73.418 0.229 7.4 7.14 6.77
9/17/2021 1:00:00 AM 23 73.4 0.229 7.4 7.56 6.87
9/17/2021 1:15:00 AM 23 73.4 0.229 7.4 7.12 6.83
9/17/2021 1:30:00 AM 22.96 73.328 0.229 7.39 7.09 6.77
9/17/2021 1:45:00 AM 22.94 73.292 0.229 7.39 8.07 6.85
9/17/2021 2:00:00 AM 22.93 73.274 0.229 7.39 6.82 6.87
9/17/2021 2:15:00 AM 22.9 73.22 0.23 7.4 7.77 6.87
9/17/2021 2:30:00 AM 22.86 73.148 0.23 7.4 6.83 6.88
9/17/2021 2:45:00 AM 22.84 73.112 0.23 7.4 6.92 6.82
9/17/2021 3:00:00 AM 22.84 73.112 0.23 7.39 7.8 6.83
9/17/2021 3:15:00 AM 22.78 73.004 0.23 7.38 7.69 6.83
9/17/2021 3:30:00 AM 22.77 72.986 0.23 7.39 9.07 6.83
9/17/2021 3:45:00 AM 22.78 73.004 0.229 7.38 11.93 6.79
9/17/2021 4:00:00 AM 22.73 72.914 0.23 7.38 10.1 6.75
9/17/2021 4:15:00 AM 22.67 72.806 0.231 7.37 9.12 6.76
9/17/2021 4:30:00 AM 22.68 72.824 0.23 7.37 8.5 6.76
9/17/2021 4:45:00 AM 22.61 72.698 0.231 7.35 9.48 6.76
9/17/2021 5:00:00 AM 22.64 72.752 0.23 7.35 10.58 6.69
9/17/2021 5:15:00 AM 22.62 72.716 0.231 7.36 9.13 6.72
9/17/2021 5:30:00 AM 22.6 72.68 0.23 7.35 9.41 6.67
9/17/2021 5:45:00 AM 22.56 72.608 0.23 7.34 10.5 6.71
9/17/2021 6:00:00 AM 22.59 72.662 0.23 7.35 11.21 6.74
9/17/2021 6:15:00 AM 22.58 72.644 0.229 7.34 9.22 6.77
9/17/2021 6:30:00 AM 22.5 72.5 0.23 7.35 13.76 6.81
9/17/2021 6:45:00 AM 22.5 72.5 0.23 7.35 8.31 6.82
9/17/2021 7:00:00 AM 22.42 72.356 0.231 7.35 12.84 6.88
9/17/2021 7:15:00 AM 22.44 72.392 0.231 7.36 7.54 6.9
9/17/2021 7:30:00 AM 22.42 72.356 0.23 7.34 8.06 6.89
9/17/2021 7:45:00 AM 22.4 72.32 0.23 7.36 7.11 6.94
9/17/2021 8:00:00 AM 22.39 72.302 0.23 7.36 8.42 6.93
9/17/2021 8:15:00 AM 22.38 72.284 0.229 7.35 8.01 6.98
9/17/2021 8:30:00 AM 22.39 72.302 0.229 7.36 6.39 6.95
9/17/2021 8:45:00 AM 22.42 72.356 0.229 7.37 5.53 6.98
9/17/2021 9:00:00 AM 22.38 72.284 0.23 7.36 5.38 7.02
9/17/2021 9:15:00 AM 22.36 72.248 0.23 7.36 6.2 7.11
9/17/2021 9:30:00 AM 22.37 72.266 0.23 7.37 5.96 7.17
9/17/2021 9:45:00 AM 22.42 72.356 0.229 7.38 4.99 7.32
9/17/2021 10:00:00 AM 22.45 72.41 0.229 7.39 5.07 7.4
9/17/2021 10:15:00 AM 22.51 72.518 0.228 7.41 5.28 7.51
9/17/2021 10:30:00 AM 22.51 72.518 0.228 7.42 5.3 7.57
9/17/2021 10:45:00 AM 22.58 72.644 0.228 7.43 5.87 7.64
9/17/2021 11:00:00 AM 22.57 72.626 0.228 7.44 7.73 7.7
9/17/2021 11:15:00 AM 22.63 72.734 0.228 7.46 5.66 7.63
9/17/2021 11:30:00 AM 22.61 72.698 0.228 7.47 4.95 7.62
9/17/2021 11:45:00 AM 22.56 72.608 0.229 7.47 4.84 7.6
9/17/2021 12:00:00 PM 22.64 72.752 0.228 7.49 6.52 7.7
9/17/2021 12:15:00 PM 22.65 72.77 0.228 7.5 5.52 7.76
9/17/2021 12:30:00 PM 22.72 72.896 0.227 7.51 4.42 7.83
9/17/2021 12:45:00 PM 22.79 73.022 0.227 7.53 4.6 7.79
9/17/2021 1:00:00 PM 22.8 73.04 0.226 7.54 6.43 7.86
9/17/2021 1:15:00 PM 22.85 73.13 0.227 7.56 4.69 7.96
9/17/2021 1:30:00 PM 22.97 73.346 0.226 7.56 5.64 7.99
9/17/2021 1:45:00 PM 23.07 73.526 0.227 7.59 6.78 8.02
9/17/2021 2:00:00 PM 23.16 73.688 0.228 7.6 5.66 8.14
9/17/2021 2:15:00 PM 23.2 73.76 0.228 7.62 6.06 8.14
9/17/2021 2:30:00 PM 23.21 73.778 0.228 7.63 5.73 8.1
9/17/2021 2:45:00 PM 23.24 73.832 0.228 7.65 6.62 8.24
9/17/2021 3:00:00 PM 23.28 73.904 0.228 7.65 6.87 8.13
9/17/2021 3:15:00 PM 23.3 73.94 0.228 7.66 6.36 8.04
9/17/2021 3:30:00 PM 23.34 74.012 0.227 7.67 5.66 8.04
9/17/2021 3:45:00 PM 23.34 74.012 0.227 7.67 6.26 8.05
9/17/2021 4:00:00 PM 23.32 73.976 0.228 7.68 5.9 7.89
9/17/2021 4:15:00 PM 23.32 73.976 0.228 7.67 5.66 7.87
9/17/2021 4:30:00 PM 23.33 73.994 0.228 7.68 6.4 7.93
9/17/2021 4:45:00 PM 23.35 74.03 0.228 7.68 5.29 7.87
9/17/2021 5:00:00 PM 23.34 74.012 0.228 7.69 6.5 7.84
9/17/2021 5:15:00 PM 23.26 73.868 0.229 7.69 5.22 7.8
9/17/2021 5:30:00 PM 23.32 73.976 0.228 7.69 4.84 7.78
9/17/2021 5:45:00 PM 23.27 73.886 0.228 7.68 8.05 7.71
9/17/2021 6:00:00 PM 23.26 73.868 0.228 7.66 5.54 7.52
9/17/2021 6:15:00 PM 23.23 73.814 0.228 7.64 6.48 7.52
9/17/2021 6:30:00 PM 23.2 73.76 0.228 7.63 7.39 7.39
9/17/2021 6:45:00 PM 23.15 73.67 0.229 7.62 4.67 7.33
9/17/2021 7:00:00 PM 23.12 73.616 0.229 7.6 4.94 7.29
9/17/2021 7:15:00 PM 23.07 73.526 0.229 7.6 7 7.26
9/17/2021 7:30:00 PM 23.07 73.526 0.229 7.57 5.37 7.21
9/17/2021 7:45:00 PM 23.02 73.436 0.229 7.56 6.27 7.12
9/17/2021 8:00:00 PM 23 73.4 0.229 7.54 5.72 7.1
9/17/2021 8:15:00 PM 22.94 73.292 0.229 7.52 7.62 7.02
9/17/2021 8:30:00 PM 22.92 73.256 0.228 7.49 6.28 6.97
9/17/2021 8:45:00 PM 22.87 73.166 0.229 7.48 8.41 7.01
9/17/2021 9:00:00 PM 22.78 73.004 0.23 7.46 6.79 6.97
9/17/2021 9:15:00 PM 22.8 73.04 0.23 7.45 6.04 6.92
9/17/2021 9:30:00 PM 22.73 72.914 0.231 7.45 6.75 6.97
9/17/2021 9:45:00 PM 22.7 72.86 0.231 7.44 7.24 6.89
9/17/2021 10:00:00 PM 22.69 72.842 0.231 7.43 7.42 6.85
9/17/2021 10:15:00 PM 22.65 72.77 0.231 7.42 7.66 6.86
9/17/2021 10:30:00 PM 22.65 72.77 0.23 7.41 8.99 6.88
9/17/2021 10:45:00 PM 22.61 72.698 0.23 7.39 8.43 6.79
9/17/2021 11:00:00 PM 22.61 72.698 0.23 7.39 9.39 6.87
9/17/2021 11:15:00 PM 22.56 72.608 0.231 7.37 7.81 6.83
9/17/2021 11:30:00 PM 22.53 72.554 0.231 7.37 7.67 6.8
9/17/2021 11:45:00 PM 22.5 72.5 0.232 7.37 8.18 6.81
9/18/2021 12:00:00 AM 22.46 72.42799 0.232 7.36 7.67 6.83
9/18/2021 12:15:00 AM 22.43 72.374 0.232 7.36 8.01 6.84
9/18/2021 12:30:00 AM 22.42 72.356 0.231 7.35 8.56 6.83
9/18/2021 12:45:00 AM 22.39 72.302 0.231 7.35 8.02 6.85
9/18/2021 1:00:00 AM 22.39 72.302 0.231 7.35 7.12 6.88
9/18/2021 1:15:00 AM 22.38 72.284 0.23 7.35 8.78 6.88
9/18/2021 1:30:00 AM 22.37 72.266 0.23 7.34 9.31 6.86
9/18/2021 1:45:00 AM 22.35 72.23 0.23 7.34 7.29 6.83
9/18/2021 2:00:00 AM 22.32 72.176 0.231 7.33 9.18 6.88
9/18/2021 2:15:00 AM 22.29 72.122 0.231 7.33 7.26 6.86
9/18/2021 2:30:00 AM 22.28 72.104 0.231 7.32 9.91 6.87
9/18/2021 2:45:00 AM 22.27 72.086 0.231 7.32 9.41 6.83
9/18/2021 3:00:00 AM 22.26 72.068 0.231 7.33 7.83 6.86
9/18/2021 3:15:00 AM 22.23 72.014 0.231 7.32 9.43 6.89
9/18/2021 3:30:00 AM 22.23 72.014 0.23 7.32 7.91 6.85
9/18/2021 3:45:00 AM 22.25 72.05 0.23 7.31 9.41 6.82
9/18/2021 4:00:00 AM 22.23 72.014 0.23 7.31 9.76 6.9
9/18/2021 4:15:00 AM 22.19 71.942 0.23 7.3 9.14 6.82
9/18/2021 4:30:00 AM 22.15 71.87 0.23 7.3 10.36 6.83
9/18/2021 4:45:00 AM 22.12 71.816 0.231 7.3 8.72 6.82
9/18/2021 5:00:00 AM 22.1 71.78 0.23 7.29 9.43 6.86
9/18/2021 5:15:00 AM 22.07 71.726 0.23 7.29 8.66 6.89
9/18/2021 5:30:00 AM 22.07 71.726 0.229 7.29 9.44 6.9
9/18/2021 5:45:00 AM 22.03 71.654 0.229 7.29 9.83 6.86
9/18/2021 6:00:00 AM 22.03 71.654 0.229 7.29 10.16 6.89
9/18/2021 6:15:00 AM 22.02 71.636 0.228 7.28 9.58 6.93
9/18/2021 6:30:00 AM 22.01 71.618 0.228 7.28 7.08 6.87
9/18/2021 6:45:00 AM 21.97 71.546 0.228 7.29 8.64 6.91
9/18/2021 7:00:00 AM 21.9 71.42 0.229 7.29 8.98 6.93
9/18/2021 7:15:00 AM 21.89 71.402 0.229 7.28 7.94 6.97
9/18/2021 7:30:00 AM 21.87 71.366 0.228 7.28 8.53 7
9/18/2021 7:45:00 AM 21.86 71.348 0.228 7.28 9.67 7.04
9/18/2021 8:00:00 AM 21.92 71.456 0.227 7.29 6.56 7
9/18/2021 8:15:00 AM 21.9 71.42 0.227 7.29 6.48 7.09
9/18/2021 8:30:00 AM 21.9 71.42 0.227 7.29 6.3 7.11
9/18/2021 8:45:00 AM 21.87 71.366 0.227 7.29 12.54 7.13
9/18/2021 9:00:00 AM 21.87 71.366 0.227 7.3 6.13 7.18
9/18/2021 9:15:00 AM 21.9 71.42 0.228 7.3 5.87 7.24
9/18/2021 9:30:00 AM 21.93 71.474 0.228 7.31 6.2 7.35
9/18/2021 9:45:00 AM 21.96 71.528 0.228 7.31 6.12 7.39
9/18/2021 10:00:00 AM 22.07 71.726 0.227 7.33 5.85 7.5
9/18/2021 10:15:00 AM 22.14 71.852 0.227 7.33 6.28 7.57
9/18/2021 10:30:00 AM 22.22 71.996 0.227 7.34 6.78 7.7
9/18/2021 10:45:00 AM 22.31 72.158 0.226 7.36 7.81 7.7
9/18/2021 11:00:00 AM 22.4 72.32 0.226 7.36 6.72 7.77
9/18/2021 11:15:00 AM 22.39 72.302 0.227 7.38 6.18 7.81
9/18/2021 11:30:00 AM 22.46 72.42799 0.227 7.39 6.77 7.87
9/18/2021 11:45:00 AM 22.57 72.626 0.227 7.4 6.38 7.93
9/18/2021 12:00:00 PM 22.71 72.878 0.227 7.43 6.48 8.04
9/18/2021 12:15:00 PM 22.75 72.95 0.227 7.45 5.58 8.11
9/18/2021 12:30:00 PM 22.9 73.22 0.227 7.47 5.67 8.1
9/18/2021 12:45:00 PM 23 73.4 0.226 7.49 5.03 8.15
9/18/2021 1:00:00 PM 23.13 73.634 0.226 7.49 6.19 8.09
9/18/2021 1:15:00 PM 23.27 73.886 0.225 7.52 5.73 8.17
9/18/2021 1:30:00 PM 23.32 73.976 0.225 7.52 6.47 8.19
9/18/2021 1:45:00 PM 23.39 74.102 0.226 7.54 9.49 8.18
9/18/2021 2:00:00 PM 23.43 74.174 0.226 7.55 6.91 8.19
9/18/2021 2:15:00 PM 23.52 74.336 0.227 7.57 6.4 8.16
9/18/2021 2:30:00 PM 23.55 74.39 0.227 7.59 6.08 8.2
9/18/2021 2:45:00 PM 23.55 74.39 0.226 7.58 5.93 8.16
9/18/2021 3:00:00 PM 23.57 74.426 0.226 7.6 6.43 8.06
9/18/2021 3:15:00 PM 23.58 74.444 0.226 7.6 5.65 7.99
9/18/2021 3:30:00 PM 23.56 74.408 0.226 7.61 5.38 7.87
9/18/2021 3:45:00 PM 23.53 74.354 0.226 7.59 5.64 7.84
9/18/2021 4:00:00 PM 23.56 74.408 0.225 7.6 6.18 7.83
9/18/2021 4:15:00 PM 23.55 74.39 0.226 7.6 5.35 7.75
9/18/2021 4:30:00 PM 23.49 74.282 0.227 7.59 5.33 7.73
9/18/2021 4:45:00 PM 23.47 74.246 0.227 7.59 5.06 7.66
9/18/2021 5:00:00 PM 23.47 74.246 0.227 7.58 4.84 7.63
9/18/2021 5:15:00 PM 23.43 74.174 0.227 7.57 5.05 7.54
9/18/2021 5:30:00 PM 23.39 74.102 0.227 7.57 5.02 7.53
9/18/2021 5:45:00 PM 23.4 74.12 0.227 7.54 7.66 7.41
9/18/2021 6:00:00 PM 23.35 74.03 0.227 7.55 6.47 7.37
9/18/2021 6:15:00 PM 23.34 74.012 0.226 7.53 5.04 7.29
9/18/2021 6:30:00 PM 23.31 73.958 0.226 7.52 5.99 7.23
9/18/2021 6:45:00 PM 23.25 73.85 0.227 7.49 5.68 7.21
9/18/2021 7:00:00 PM 23.19 73.742 0.227 7.48 5.89 7.19
9/18/2021 7:15:00 PM 23.14 73.652 0.228 7.47 5.87 7.11
9/18/2021 7:30:00 PM 23.08 73.544 0.227 7.45 6.11 7.04
9/18/2021 7:45:00 PM 23.03 73.454 0.227 7.44 6.78 6.98
9/18/2021 8:00:00 PM 22.99 73.382 0.227 7.43 6.39 6.93
9/18/2021 8:15:00 PM 22.95 73.31 0.228 7.41 5.95 6.87
9/18/2021 8:30:00 PM 22.91 73.238 0.228 7.4 5.99 6.83
9/18/2021 8:45:00 PM 22.91 73.238 0.227 7.39 7.55 6.78
9/18/2021 9:00:00 PM 22.87 73.166 0.227 7.38 9.06 6.79
9/18/2021 9:15:00 PM 22.85 73.13 0.228 7.36 7.25 6.82
9/18/2021 9:30:00 PM 22.82 73.076 0.228 7.36 6.3 6.74
9/18/2021 9:45:00 PM 22.81 73.058 0.228 7.34 5.81 6.73
9/18/2021 10:00:00 PM 22.8 73.04 0.228 7.33 6.97 6.72
9/18/2021 10:15:00 PM 22.81 73.058 0.228 7.33 7.61 6.69
9/18/2021 10:30:00 PM 22.82 73.076 0.227 7.33 6.58 6.72
9/18/2021 10:45:00 PM 22.81 73.058 0.227 7.33 6.16 6.74
9/18/2021 11:00:00 PM 22.82 73.076 0.227 7.33 7.18 6.73
9/18/2021 11:15:00 PM 22.83 73.094 0.226 7.32 8.95 6.68
9/18/2021 11:30:00 PM 22.82 73.076 0.227 7.31 7.22 6.65
9/18/2021 11:45:00 PM 22.78 73.004 0.228 7.31 6.52 6.61
9/19/2021 12:00:00 AM 22.77 72.986 0.228 7.31 7.19 6.58
9/19/2021 12:15:00 AM 22.73 72.914 0.228 7.3 6.45 6.63
9/19/2021 12:30:00 AM 22.7 72.86 0.228 7.29 8.07 6.62
9/19/2021 12:45:00 AM 22.68 72.824 0.228 7.3 8.57 6.61
9/19/2021 1:00:00 AM 22.68 72.824 0.227 7.3 5.6 6.61
9/19/2021 1:15:00 AM 22.68 72.824 0.227 7.29 7.67 6.64
9/19/2021 1:30:00 AM 22.67 72.806 0.226 7.29 6.5 6.62
9/19/2021 1:45:00 AM 22.64 72.752 0.227 7.29 6.98 6.62
9/19/2021 2:00:00 AM 22.59 72.662 0.228 7.29 6.7 6.68
9/19/2021 2:15:00 AM 22.55 72.59 0.228 7.3 6.7 6.69
9/19/2021 2:30:00 AM 22.53 72.554 0.228 7.29 6.93 6.61
9/19/2021 2:45:00 AM 22.51 72.518 0.227 7.29 9.1 6.65
9/19/2021 3:00:00 AM 22.46 72.42799 0.228 7.28 8.03 6.69
9/19/2021 3:15:00 AM 22.45 72.41 0.227 7.29 9.51 6.73
9/19/2021 3:30:00 AM 22.4 72.32 0.227 7.28 7.19 6.7
9/19/2021 3:45:00 AM 22.39 72.302 0.226 7.28 7.48 6.67
9/19/2021 4:00:00 AM 22.34 72.212 0.227 7.28 8.89 6.66
9/19/2021 4:15:00 AM 22.26 72.068 0.227 7.27 9.32 6.69
9/19/2021 4:30:00 AM 22.22 71.996 0.228 7.27 8.77 6.68
9/19/2021 4:45:00 AM 22.18 71.924 0.228 7.26 8.74 6.69
9/19/2021 5:00:00 AM 22.13 71.834 0.229 7.26 10.75 6.69
9/19/2021 5:15:00 AM 22.08 71.744 0.229 7.25 10.14 6.7
9/19/2021 5:30:00 AM 22.05 71.69 0.229 7.26 7.89 6.67
9/19/2021 5:45:00 AM 21.96 71.528 0.23 7.25 10.02 6.71
9/19/2021 6:00:00 AM 21.96 71.528 0.229 7.25 11.96 6.67
9/19/2021 6:15:00 AM 21.92 71.456 0.229 7.24 11.16 6.64
9/19/2021 6:30:00 AM 21.89 71.402 0.229 7.25 10.15 6.62
9/19/2021 6:45:00 AM 21.84 71.312 0.229 7.24 9.96 6.68
9/19/2021 7:00:00 AM 21.77 71.186 0.23 7.24 8.1 6.73
9/19/2021 7:15:00 AM 21.69 71.042 0.23 7.24 9.26 6.7
9/19/2021 7:30:00 AM 21.68 71.024 0.229 7.25 7.3 6.72
9/19/2021 7:45:00 AM 21.63 70.934 0.229 7.25 7.17 6.79
9/19/2021 8:00:00 AM 21.6 70.88 0.228 7.24 7.71 6.78
9/19/2021 8:15:00 AM 21.56 70.808 0.229 7.24 6.91 6.87
9/19/2021 8:30:00 AM 21.59 70.862 0.228 7.25 5.57 6.91
9/19/2021 8:45:00 AM 21.6 70.88 0.227 7.26 5.66 7.01
9/19/2021 9:00:00 AM 21.56 70.808 0.228 7.26 5.97 7.07
9/19/2021 9:15:00 AM 21.6 70.88 0.228 7.27 6.31 7.14
9/19/2021 9:30:00 AM 21.6 70.88 0.228 7.27 5.9 7.28
9/19/2021 9:45:00 AM 21.61 70.898 0.228 7.29 6.09 7.38
9/19/2021 10:00:00 AM 21.67 71.006 0.227 7.3 5.21 7.45
9/19/2021 10:15:00 AM 21.75 71.15 0.226 7.31 5.18 7.54
9/19/2021 10:30:00 AM 21.81 71.258 0.226 7.32 7.75 7.55
9/19/2021 10:45:00 AM 21.89 71.402 0.226 7.34 6.64 7.66
9/19/2021 11:00:00 AM 21.96 71.528 0.225 7.35 5.15 7.76
9/19/2021 11:15:00 AM 22.03 71.654 0.226 7.37 5.36 7.77
9/19/2021 11:30:00 AM 22.13 71.834 0.225 7.39 6.33 7.88
9/19/2021 11:45:00 AM 22.19 71.942 0.226 7.4 4.51 7.88
9/19/2021 12:00:00 PM 22.28 72.104 0.226 7.41 5.79 7.92
9/19/2021 12:15:00 PM 22.36 72.248 0.226 7.42 4.76 8.04
9/19/2021 12:30:00 PM 22.45 72.41 0.226 7.44 5.29 8.02
9/19/2021 12:45:00 PM 22.54 72.57201 0.226 7.44 4.91 8.1
9/19/2021 1:00:00 PM 22.66 72.788 0.225 7.45 6.57 8.05
9/19/2021 1:15:00 PM 22.76 72.968 0.225 7.46 4.92 8.08
9/19/2021 1:30:00 PM 22.84 73.112 0.226 7.47 4.93 8.02
9/19/2021 1:45:00 PM 22.86 73.148 0.226 7.47 5.17 8.02
9/19/2021 2:00:00 PM 22.91 73.238 0.226 7.48 5.35 8.05
9/19/2021 2:15:00 PM 22.99 73.382 0.227 7.49 5.55 8.07
9/19/2021 2:30:00 PM 23 73.4 0.227 7.5 4.81 8.09
9/19/2021 2:45:00 PM 23.02 73.436 0.227 7.51 5.19 8.06
9/19/2021 3:00:00 PM 23.08 73.544 0.226 7.52 5.55 8.05
9/19/2021 3:15:00 PM 23.12 73.616 0.226 7.51 5.3 7.97
9/19/2021 3:30:00 PM 23.12 73.616 0.226 7.51 5.5 7.93
9/19/2021 3:45:00 PM 23.06 73.508 0.226 7.51 7.91 7.78
9/19/2021 4:00:00 PM 23.1 73.58 0.226 7.5 6.15 7.74
9/19/2021 4:15:00 PM 23.05 73.49 0.226 7.5 5.72 7.72
9/19/2021 4:30:00 PM 23.05 73.49 0.226 7.5 5.71 7.65
9/19/2021 4:45:00 PM 23.01 73.418 0.226 7.49 5.53 7.63
9/19/2021 5:00:00 PM 22.98 73.364 0.227 7.49 5.81 7.57
9/19/2021 5:15:00 PM 22.96 73.328 0.227 7.48 6.05 7.51
9/19/2021 5:30:00 PM 22.92 73.256 0.226 7.47 6.04 7.45
9/19/2021 5:45:00 PM 22.9 73.22 0.227 7.47 5.41 7.41
9/19/2021 6:00:00 PM 22.86 73.148 0.227 7.46 6.88 7.37
9/19/2021 6:15:00 PM 22.82 73.076 0.226 7.46 5.8 7.31
9/19/2021 6:30:00 PM 22.76 72.968 0.226 7.45 6.37 7.31
9/19/2021 6:45:00 PM 22.68 72.824 0.226 7.45 6.16 7.29
9/19/2021 7:00:00 PM 22.61 72.698 0.227 7.44 4.8 7.23
9/19/2021 7:15:00 PM 22.54 72.57201 0.227 7.42 5.24 7.19
9/19/2021 7:30:00 PM 22.47 72.446 0.227 7.41 5.67 7.09
9/19/2021 7:45:00 PM 22.4 72.32 0.227 7.4 7.14 7.02
9/19/2021 8:00:00 PM 22.29 72.122 0.227 7.39 6.01 7.03
9/19/2021 8:15:00 PM 22.24 72.032 0.227 7.38 6.13 6.95
9/19/2021 8:30:00 PM 22.18 71.924 0.227 7.37 7.19 6.9
9/19/2021 8:45:00 PM 22.1 71.78 0.227 7.36 7.03 6.84
9/19/2021 9:00:00 PM 22.06 71.708 0.227 7.35 7.02 6.79
9/19/2021 9:15:00 PM 21.96 71.528 0.228 7.33 7.65 6.77
9/19/2021 9:30:00 PM 21.93 71.474 0.228 7.32 7.7 6.74
9/19/2021 9:45:00 PM 21.84 71.312 0.229 7.31 7.86 6.72
9/19/2021 10:00:00 PM 21.78 71.204 0.229 7.29 7.4 6.65
9/19/2021 10:15:00 PM 21.76 71.168 0.229 7.29 7.47 6.71
9/19/2021 10:30:00 PM 21.71 71.078 0.229 7.28 8.07 6.67
9/19/2021 10:45:00 PM 21.67 71.006 0.229 7.27 7.4 6.66
9/19/2021 11:00:00 PM 21.64 70.952 0.228 7.26 8.5 6.66
9/19/2021 11:15:00 PM 21.64 70.952 0.227 7.26 8.59 6.61
9/19/2021 11:30:00 PM 21.59 70.862 0.228 7.26 10.92 6.71
9/19/2021 11:45:00 PM 21.55 70.79 0.228 7.25 7.45 6.72
9/20/2021 12:00:00 AM 21.49 70.682 0.228 7.25 7.25 6.8
9/20/2021 12:15:00 AM 21.49 70.682 0.228 7.25 7.32 6.8
9/20/2021 12:30:00 AM 21.44 70.592 0.228 7.25 7.47 6.82
9/20/2021 12:45:00 AM 21.4 70.52 0.228 7.26 6.73 6.86
9/20/2021 1:00:00 AM 21.36 70.448 0.228 7.25 6.53 6.88
9/20/2021 1:15:00 AM 21.36 70.448 0.227 7.25 7.93 6.91
9/20/2021 1:30:00 AM 21.33 70.394 0.227 7.25 8 6.95
9/20/2021 1:45:00 AM 21.3 70.34 0.227 7.25 9.73 6.96
9/20/2021 2:00:00 AM 21.29 70.32201 0.227 7.25 7.73 6.95
9/20/2021 2:15:00 AM 21.26 70.268 0.228 7.25 6.68 6.98
9/20/2021 2:30:00 AM 21.17 70.106 0.228 7.25 6.5 6.97
9/20/2021 2:45:00 AM 21.13 70.034 0.229 7.24 7.76 6.95
9/20/2021 3:00:00 AM 21.07 69.926 0.229 7.23 8.08 6.92
9/20/2021 3:15:00 AM 21.04 69.872 0.229 7.22 10.25 6.84
9/20/2021 3:30:00 AM 20.98 69.764 0.229 7.2 10.95 6.79
9/20/2021 3:45:00 AM 20.98 69.764 0.229 7.2 10.69 6.71
9/20/2021 4:00:00 AM 20.91 69.638 0.229 7.19 12.39 6.72
9/20/2021 4:15:00 AM 20.87 69.566 0.229 7.18 10.08 6.73
9/20/2021 4:30:00 AM 20.79 69.422 0.23 7.17 11.36 6.74
9/20/2021 4:45:00 AM 20.74 69.332 0.23 7.18 9.93 6.78
9/20/2021 5:00:00 AM 20.72 69.296 0.229 7.18 9.58 6.81
9/20/2021 5:15:00 AM 20.66 69.188 0.228 7.18 10.6 6.78
9/20/2021 5:30:00 AM 20.6 69.08 0.228 7.18 11.16 6.84
9/20/2021 5:45:00 AM 20.53 68.954 0.228 7.17 10.24 6.86
9/20/2021 6:00:00 AM 20.49 68.882 0.228 7.18 8.53 6.89
9/20/2021 6:15:00 AM 20.5 68.9 0.227 7.18 7.88 6.87
9/20/2021 6:30:00 AM 20.43 68.774 0.227 7.17 9.73 6.94
9/20/2021 6:45:00 AM 20.39 68.702 0.228 7.18 8.67 6.91
9/20/2021 7:00:00 AM 20.3 68.54 0.228 7.17 9.02 6.96
9/20/2021 7:15:00 AM 20.24 68.432 0.229 7.17 8.26 7.04
9/20/2021 7:30:00 AM 20.23 68.414 0.228 7.17 10.59 7.04
9/20/2021 7:45:00 AM 20.21 68.378 0.229 7.17 7.47 7.1
9/20/2021 8:00:00 AM 20.23 68.414 0.229 7.17 9.07 7.15
9/20/2021 8:15:00 AM 20.21 68.378 0.228 7.17 9.17 7.21
9/20/2021 8:30:00 AM 20.22 68.396 0.228 7.18 7.19 7.26
9/20/2021 8:45:00 AM 20.25 68.45 0.227 7.18 8.82 7.33
9/20/2021 9:00:00 AM 20.34 68.612 0.227 7.19 18.92 7.45
9/20/2021 9:15:00 AM 20.33 68.594 0.228 7.2 5.89 7.52
9/20/2021 9:30:00 AM 20.34 68.612 0.228 7.19 10.38 7.68
9/20/2021 9:45:00 AM 20.4 68.72 0.228 7.2 10.69 7.72
9/20/2021 10:00:00 AM 20.5 68.9 0.229 7.21 20.02 7.86
9/20/2021 10:15:00 AM 20.55 68.99 0.228 7.21 19.78 7.89
9/20/2021 10:30:00 AM 20.71 69.278 0.227 7.22 17.34 7.92
9/20/2021 10:45:00 AM 20.74 69.332 0.227 7.24 14.2 7.97
9/20/2021 11:00:00 AM 20.91 69.638 0.227 7.25 19.51 8.04
9/20/2021 11:15:00 AM 21.03 69.854 0.226 7.25 17.99 7.98
9/20/2021 11:30:00 AM 21.13 70.034 0.227 7.25 20.58 8.08
9/20/2021 11:45:00 AM 21.21 70.17799 0.227 7.26 10.89 8.11
9/20/2021 12:00:00 PM 21.25 70.25 0.228 7.26 16.71 8.17
9/20/2021 12:15:00 PM 21.33 70.394 0.228 7.27 23.95 8.21
9/20/2021 12:30:00 PM 21.44 70.592 0.228 7.28 9.51 8.19
9/20/2021 12:45:00 PM 21.63 70.934 0.227 7.29 12.59 8.23
9/20/2021 1:00:00 PM 21.73 71.114 0.227 7.29 9.82 8.35
9/20/2021 1:15:00 PM 21.87 71.366 0.226 7.3 11.49 8.3
9/20/2021 1:30:00 PM 21.92 71.456 0.226 7.31 12.15 8.35
9/20/2021 1:45:00 PM 22.05 71.69 0.226 7.32 9.99 8.31
9/20/2021 2:00:00 PM 22.04 71.672 0.226 7.33 24.31 8.46
9/20/2021 2:15:00 PM 22.1 71.78 0.227 7.34 48.6 8.36
9/20/2021 2:30:00 PM 22.17 71.906 0.227 7.36 23.72 8.42
9/20/2021 2:45:00 PM 22.17 71.906 0.227 7.36 59.13 8.4
9/20/2021 3:00:00 PM 22.23 72.014 0.227 7.37 35.3 8.37
9/20/2021 3:15:00 PM 22.21 71.978 0.227 7.38 30.84 8.32
9/20/2021 3:30:00 PM 22.27 72.086 0.226 7.39 50.28 8.33
9/20/2021 3:45:00 PM 22.24 72.032 0.226 7.39 50.61 8.35
9/20/2021 4:00:00 PM 22.23 72.014 0.225 7.4 70.83 8.19
9/20/2021 4:15:00 PM 22.21 71.978 0.225 7.4 21.41 8.14
9/20/2021 4:30:00 PM 22.19 71.942 0.224 7.4 7.93 8.12
9/20/2021 4:45:00 PM 22.12 71.816 0.225 7.4 39.9 8.09
9/20/2021 5:00:00 PM 22.1 71.78 0.226 7.4 103.8 8.1
9/20/2021 5:15:00 PM 22.06 71.708 0.226 7.41 6.48 8.07
9/20/2021 5:30:00 PM 22.03 71.654 0.226 7.41 4.69 8
9/20/2021 5:45:00 PM 21.97 71.546 0.226 7.4 5.69 7.92
9/20/2021 6:00:00 PM 21.98 71.564 0.225 7.38 44.59 7.86
9/20/2021 6:15:00 PM 21.95 71.51 0.224 7.38 53.41 7.75
9/20/2021 6:30:00 PM 21.93 71.474 0.224 7.37 16.17 7.73
9/20/2021 6:45:00 PM 21.88 71.384 0.224 7.37 6.51 7.67
9/20/2021 7:00:00 PM 21.82 71.276 0.223 7.35 35.46 7.58
9/20/2021 7:15:00 PM 21.74 71.132 0.223 7.34 5.69 7.51
9/20/2021 7:30:00 PM 21.64 70.952 0.224 7.34 13.15 7.51
9/20/2021 7:45:00 PM 21.56 70.808 0.224 7.32 114.5 7.45
9/20/2021 8:00:00 PM 21.49 70.682 0.225 7.31 7.93 7.44
9/20/2021 8:15:00 PM 21.44 70.592 0.225 7.31 6.21 7.34
9/20/2021 8:30:00 PM 21.38 70.484 0.223 7.3 7.61 7.3
9/20/2021 8:45:00 PM 21.31 70.358 0.223 7.29 23.27 7.32
9/20/2021 9:00:00 PM 21.28 70.304 0.224 7.27 13.28 7.21
9/20/2021 9:15:00 PM 21.21 70.17799 0.224 7.27 17.43 7.24
9/20/2021 9:30:00 PM 21.16 70.088 0.225 7.25 49.8 7.25
9/20/2021 9:45:00 PM 21.09 69.962 0.226 7.24 6.69 7.21
9/20/2021 10:00:00 PM 21.06 69.908 0.226 7.24 6.49 7.19
9/20/2021 10:15:00 PM 21.04 69.872 0.226 7.24 7.27 7.21
9/20/2021 10:30:00 PM 21.05 69.89 0.226 7.23 6.38 7.13
9/20/2021 10:45:00 PM 21.01 69.818 0.226 7.21 8.14 7.06
9/20/2021 11:00:00 PM 20.98 69.764 0.227 7.2 8.01 7.01
9/20/2021 11:15:00 PM 20.99 69.782 0.225 7.18 8.13 6.92
9/20/2021 11:30:00 PM 20.97 69.746 0.226 7.17 9.84 6.93
9/20/2021 11:45:00 PM 20.93 69.674 0.227 7.16 8.28 7
9/21/2021 12:00:00 AM 20.91 69.638 0.228 7.16 7.72 6.97
9/21/2021 12:15:00 AM 20.86 69.548 0.226 7.15 9.26 7.01
9/21/2021 12:30:00 AM 20.85 69.53 0.228 7.16 7.84 7
9/21/2021 12:45:00 AM 20.83 69.494 0.228 7.16 8.25 7.03
9/21/2021 1:00:00 AM 20.83 69.494 0.228 7.15 7.43 7.04
9/21/2021 1:15:00 AM 20.82 69.476 0.228 7.17 8.44 7.04
9/21/2021 1:30:00 AM 20.8 69.44 0.227 7.16 8.24 6.96
9/21/2021 1:45:00 AM 20.84 69.512 0.227 7.15 8.72 6.96
9/21/2021 2:00:00 AM 20.77 69.386 0.228 7.15 8.98 6.96
9/21/2021 2:15:00 AM 20.79 69.422 0.226 7.15 7.69 7.02
9/21/2021 2:30:00 AM 20.74 69.332 0.227 7.15 6.6 7
9/21/2021 2:45:00 AM 20.69 69.242 0.228 7.15 6.31 7.04
9/21/2021 3:00:00 AM 20.65 69.17 0.227 7.15 7.51 7.08
9/21/2021 3:15:00 AM 20.65 69.17 0.228 7.14 9.38 7.05
9/21/2021 3:30:00 AM 20.62 69.116 0.228 7.15 7.72 7.07
9/21/2021 3:45:00 AM 20.58 69.044 0.227 7.14 7.89 7.07
9/21/2021 4:00:00 AM 20.57 69.026 0.227 7.14 8.97 7.03
9/21/2021 4:15:00 AM 20.55 68.99 0.227 7.14 7.63 7.06
9/21/2021 4:30:00 AM 20.51 68.918 0.227 7.14 8.03 6.99
9/21/2021 4:45:00 AM 20.49 68.882 0.228 7.13 9.01 6.99
9/21/2021 5:00:00 AM 20.37 68.666 0.228 7.13 7.69 7.09
9/21/2021 5:15:00 AM 20.36 68.648 0.228 7.14 10.85 7.08
9/21/2021 5:30:00 AM 20.33 68.594 0.228 7.13 7.76 7.15
9/21/2021 5:45:00 AM 20.32 68.576 0.228 7.14 9.19 7.11
9/21/2021 6:00:00 AM 20.27 68.486 0.228 7.13 8.17 7.15
9/21/2021 6:15:00 AM 20.2 68.36 0.228 7.13 7.95 7.15
9/21/2021 6:30:00 AM 20.19 68.342 0.227 7.14 8.7 7.16
9/21/2021 6:45:00 AM 20.21 68.378 0.227 7.14 7.77 7.17
9/21/2021 7:00:00 AM 20.13 68.234 0.228 7.13 12.43 7.21
9/21/2021 7:15:00 AM 20.13 68.234 0.228 7.14 9.35 7.24
9/21/2021 7:30:00 AM 20.11 68.198 0.228 7.14 11.46 7.24
9/21/2021 7:45:00 AM 20.11 68.198 0.228 7.14 7.7 7.25
9/21/2021 8:00:00 AM 20.09 68.162 0.228 7.13 9.85 7.31
9/21/2021 8:15:00 AM 20.06 68.108 0.227 7.13 9.19 7.24
9/21/2021 8:30:00 AM 20.17 68.306 0.227 7.13 8.29 7.26
9/21/2021 8:45:00 AM 20.19 68.342 0.227 7.12 7.64 7.27
9/21/2021 9:00:00 AM 20.23 68.414 0.228 7.11 8.73 7.32
9/21/2021 9:15:00 AM 20.25 68.45 0.228 7.11 8.35 7.44
9/21/2021 9:30:00 AM 20.25 68.45 0.228 7.11 8.6 7.53
9/21/2021 9:45:00 AM 20.34 68.612 0.228 7.11 10.74 7.66
9/21/2021 10:00:00 AM 20.43 68.774 0.228 7.11 7.78 7.75
9/21/2021 10:15:00 AM 20.48 68.864 0.228 7.12 7.73 7.88
9/21/2021 10:30:00 AM 20.63 69.134 0.227 7.13 7.8 7.94
9/21/2021 10:45:00 AM 20.73 69.314 0.226 7.15 9.42 8.03
9/21/2021 11:00:00 AM 20.84 69.512 0.226 7.15 6.85 8.26
9/21/2021 11:15:00 AM 20.94 69.692 0.225 7.17 7.61 8.26
9/21/2021 11:30:00 AM 21.03 69.854 0.225 7.18 8.18 8.46
9/21/2021 11:45:00 AM 21.17 70.106 0.225 7.21 6.64 8.48
9/21/2021 12:00:00 PM 21.18 70.124 0.226 7.23 7.11 8.63
9/21/2021 12:15:00 PM 21.26 70.268 0.226 7.25 7.03 8.71
9/21/2021 12:30:00 PM 21.3 70.34 0.226 7.26 7.15 8.76
9/21/2021 12:45:00 PM 21.37 70.466 0.226 7.28 6.73 8.78
9/21/2021 1:00:00 PM 21.44 70.592 0.226 7.3 6.52 8.92
9/21/2021 1:15:00 PM 21.62 70.916 0.226 7.31 6.79 8.82
9/21/2021 1:30:00 PM 21.59 70.862 0.225 7.33 5.97 8.88
9/21/2021 1:45:00 PM 21.71 71.078 0.224 7.34 6.62 8.86
9/21/2021 2:00:00 PM 21.69 71.042 0.225 7.35 6.69 8.86
9/21/2021 2:15:00 PM 21.59 70.862 0.226 7.35 6.19 8.77
9/21/2021 2:30:00 PM 21.59 70.862 0.227 7.36 8.35 8.74
9/21/2021 2:45:00 PM 21.62 70.916 0.228 7.34 7.89 8.71
9/21/2021 3:00:00 PM 21.79 71.222 0.227 7.35 7.78 8.66
9/21/2021 3:15:00 PM 21.88 71.384 0.227 7.34 9.65 8.67
9/21/2021 3:30:00 PM 21.86 71.348 0.228 7.34 8.7 8.48
9/21/2021 3:45:00 PM 21.88 71.384 0.227 7.33 9.02 8.46
9/21/2021 4:00:00 PM 21.95 71.51 0.227 7.33 8.72 8.35
9/21/2021 4:15:00 PM 21.89 71.402 0.227 7.31 9.56 8.22
9/21/2021 4:30:00 PM 21.93 71.474 0.227 7.31 8.74 8.18
9/21/2021 4:45:00 PM 21.88 71.384 0.223 7.3 9.58 8.14
9/21/2021 5:00:00 PM 21.85 71.33 0.225 7.3 7.76 8.11
9/21/2021 5:15:00 PM 21.79 71.222 0.227 7.3 10.31 8.05
9/21/2021 5:30:00 PM 21.82 71.276 0.225 7.3 7.81 7.99
9/21/2021 5:45:00 PM 21.78 71.204 0.226 7.3 8.04 8
9/21/2021 6:00:00 PM 21.77 71.186 0.225 7.3 7.45 7.78
9/21/2021 6:15:00 PM 21.73 71.114 0.225 7.3 6.94 7.8
9/21/2021 6:30:00 PM 21.73 71.114 0.224 7.29 7.35 7.74
9/21/2021 6:45:00 PM 21.66 70.988 0.224 7.28 7.37 7.75
9/21/2021 7:00:00 PM 21.64 70.952 0.225 7.28 8.86 7.64
9/21/2021 7:15:00 PM 21.57 70.826 0.226 7.26 7.49 7.59
9/21/2021 7:30:00 PM 21.51 70.718 0.221 7.25 6.89 7.42
9/21/2021 7:45:00 PM 21.48 70.664 0.221 7.24 7.2 7.43
9/21/2021 8:00:00 PM 21.45 70.61 0.222 7.23 8 7.34
9/21/2021 8:15:00 PM 21.42 70.556 0.221 7.22 8.49 7.29
9/21/2021 8:30:00 PM 21.37 70.466 0.221 7.21 7.59 7.24
9/21/2021 8:45:00 PM 21.39 70.502 0.222 7.2 7.05 7.22
9/21/2021 9:00:00 PM 21.38 70.484 0.221 7.19 8.54 7.13
9/21/2021 9:15:00 PM 21.36 70.448 0.221 7.18 7.45 7.13
9/21/2021 9:30:00 PM 21.32 70.376 0.225 7.16 8.54 7.1
9/21/2021 9:45:00 PM 21.3 70.34 0.225 7.16 10.48 7.08
9/21/2021 10:00:00 PM 21.3 70.34 0.225 7.15 9.23 7.05
9/21/2021 10:15:00 PM 21.28 70.304 0.227 7.14 8.07 6.99
9/21/2021 10:30:00 PM 21.28 70.304 0.227 7.14 8.21 6.99
9/21/2021 10:45:00 PM 21.29 70.32201 0.227 7.14 8.67 6.98
9/21/2021 11:00:00 PM 21.29 70.32201 0.227 7.13 8.63 6.96
9/21/2021 11:15:00 PM 21.29 70.32201 0.226 7.12 8.77 6.92
9/21/2021 11:30:00 PM 21.31 70.358 0.225 7.12 9.01 6.93
9/21/2021 11:45:00 PM 21.31 70.358 0.227 7.11 7.94 6.98
9/22/2021 12:00:00 AM 21.26 70.268 0.227 7.11 8.52 7
9/22/2021 12:15:00 AM 21.29 70.32201 0.227 7.11 8.32 6.94
9/22/2021 12:30:00 AM 21.27 70.286 0.227 7.1 9.1 6.99
9/22/2021 12:45:00 AM 21.24 70.232 0.228 7.1 7.77 6.99
9/22/2021 1:00:00 AM 21.26 70.268 0.227 7.1 8.89 6.99
9/22/2021 1:15:00 AM 21.31 70.358 0.227 7.09 9.96 6.95
9/22/2021 1:30:00 AM 21.33 70.394 0.225 7.09 9.89 6.85
9/22/2021 1:45:00 AM 21.32 70.376 0.223 7.08 10.63 6.8
9/22/2021 2:00:00 AM 21.37 70.466 0.222 7.08 9.23 6.79
9/22/2021 2:15:00 AM 21.36 70.448 0.225 7.07 9.75 6.8
9/22/2021 2:30:00 AM 21.33 70.394 0.229 7.05 10.37 6.69
9/22/2021 2:45:00 AM 21.32 70.376 0.225 7.06 9.94 6.81
9/22/2021 3:00:00 AM 21.33 70.394 0.229 7.06 10.16 6.77
9/22/2021 3:15:00 AM 21.33 70.394 0.229 7.05 10.63 6.77
9/22/2021 3:30:00 AM 21.33 70.394 0.23 7.04 10.18 6.77
9/22/2021 3:45:00 AM 21.32 70.376 0.229 7.05 10.02 6.75
9/22/2021 4:00:00 AM 21.37 70.466 0.229 7.06 8.17 6.76
9/22/2021 4:15:00 AM 21.34 70.412 0.228 7.05 10.14 6.78
9/22/2021 4:30:00 AM 21.32 70.376 0.227 7.06 8.97 6.79
9/22/2021 4:45:00 AM 21.3 70.34 0.229 7.06 9.31 6.86
9/22/2021 5:00:00 AM 21.3 70.34 0.229 7.06 8.54 6.84
9/22/2021 5:15:00 AM 21.27 70.286 0.229 7.06 7.66 6.86
9/22/2021 5:30:00 AM 21.22 70.196 0.229 7.06 9.5 6.91
9/22/2021 5:45:00 AM 21.27 70.286 0.228 7.07 7.88 6.94
9/22/2021 6:00:00 AM 21.21 70.17799 0.229 7.08 8.62 6.92
9/22/2021 6:15:00 AM 21.23 70.214 0.229 7.07 7.99 6.92
9/22/2021 6:30:00 AM 21.24 70.232 0.228 7.07 8.61 6.92
9/22/2021 6:45:00 AM 21.26 70.268 0.228 7.07 7.98 6.92
9/22/2021 7:00:00 AM 21.26 70.268 0.228 7.07 7.85 6.93
9/22/2021 7:15:00 AM 21.24 70.232 0.229 7.07 7.83 6.91
9/22/2021 7:30:00 AM 21.24 70.232 0.228 7.07 7.76 6.93
9/22/2021 7:45:00 AM 21.24 70.232 0.229 7.07 8.55 6.9
9/22/2021 8:00:00 AM 21.25 70.25 0.228 7.07 8.14 6.9
9/22/2021 8:15:00 AM 21.26 70.268 0.228 7.07 9.11 6.94
9/22/2021 8:30:00 AM 21.26 70.268 0.228 7.06 11.2 6.91
9/22/2021 8:45:00 AM 21.32 70.376 0.227 7.06 10.95 6.93
9/22/2021 9:00:00 AM 21.32 70.376 0.227 7.06 9.75 6.92
9/22/2021 9:15:00 AM 21.33 70.394 0.228 7.06 10.06 6.97
9/22/2021 9:30:00 AM 21.31 70.358 0.228 7.06 10.32 6.97
9/22/2021 9:45:00 AM 21.34 70.412 0.223 7.05 9.12 7.04
9/22/2021 10:00:00 AM 21.37 70.466 0.225 7.04 9.86 7.13
9/22/2021 10:15:00 AM 21.38 70.484 0.227 7.05 9.62 7.12
9/22/2021 10:30:00 AM 21.41 70.538 0.227 7.06 9.46 7.16
9/22/2021 10:45:00 AM 21.49 70.682 0.226 7.07 8.73 7.23
9/22/2021 11:00:00 AM 21.5 70.7 0.226 7.08 9.25 7.43
9/22/2021 11:15:00 AM 21.56 70.808 0.226 7.08 9.19 7.55
9/22/2021 11:30:00 AM 21.65 70.97 0.225 7.1 8.2 7.63
9/22/2021 11:45:00 AM 21.7 71.06 0.225 7.11 7.45 7.79
9/22/2021 12:00:00 PM 21.67 71.006 0.225 7.12 7.78 7.89
9/22/2021 12:15:00 PM 21.75 71.15 0.225 7.15 9.65 7.94
9/22/2021 12:30:00 PM 21.76 71.168 0.225 7.16 7.58 7.98
9/22/2021 12:45:00 PM 21.79 71.222 0.225 7.18 8.84 8.01
9/22/2021 1:00:00 PM 21.83 71.294 0.223 7.18 7.73 7.96
9/22/2021 1:15:00 PM 21.8 71.24 0.223 7.2 7.63 7.98
9/22/2021 1:30:00 PM 21.83 71.294 0.223 7.21 8.5 7.94
9/22/2021 1:45:00 PM 21.82 71.276 0.222 7.21 8.38 7.98
9/22/2021 2:00:00 PM 21.84 71.312 0.223 7.21 8.33 7.99
9/22/2021 2:15:00 PM 21.83 71.294 0.223 7.21 8.31 7.88
9/22/2021 2:30:00 PM 21.81 71.258 0.223 7.2 8.83 7.73
9/22/2021 2:45:00 PM 21.76 71.168 0.224 7.2 9.28 7.75
9/22/2021 3:00:00 PM 21.86 71.348 0.224 7.19 8.65 7.71
9/22/2021 3:15:00 PM 21.9 71.42 0.224 7.18 9.07 7.64
9/22/2021 3:30:00 PM 21.99 71.582 0.223 7.18 10.13 7.8
9/22/2021 3:45:00 PM 22.01 71.618 0.223 7.17 10.69 7.89
9/22/2021 4:00:00 PM 22.05 71.69 0.223 7.17 9.99 7.85
9/22/2021 4:15:00 PM 22.09 71.762 0.225 7.18 13.08 7.89
9/22/2021 4:30:00 PM 22.11 71.798 0.225 7.19 10.73 7.87
9/22/2021 4:45:00 PM 22.12 71.816 0.225 7.19 9.92 7.99
9/22/2021 5:00:00 PM 22.11 71.798 0.224 7.19 9.38 7.85
9/22/2021 5:15:00 PM 22.13 71.834 0.224 7.2 9.97 7.76
9/22/2021 5:30:00 PM 22.15 71.87 0.22 7.21 12.82 7.62
9/22/2021 5:45:00 PM 22.1 71.78 0.224 7.2 8.53 7.53
9/22/2021 6:00:00 PM 22.05 71.69 0.223 7.2 8.32 7.53
9/22/2021 6:15:00 PM 22.06 71.708 0.221 7.19 8.12 7.46
9/22/2021 6:30:00 PM 22.07 71.726 0.219 7.19 8.77 7.42
9/22/2021 6:45:00 PM 22.04 71.672 0.223 7.18 8.83 7.4
9/22/2021 7:00:00 PM 22.04 71.672 0.223 7.18 8.39 7.32
9/22/2021 7:15:00 PM 22.06 71.708 0.223 7.16 9.53 7.19
9/22/2021 7:30:00 PM 21.98 71.564 0.222 7.16 11.9 7.18
9/22/2021 7:45:00 PM 21.99 71.582 0.221 7.15 13.24 7.1
9/22/2021 8:00:00 PM 22 71.6 0.221 7.14 13.15 7.09
9/22/2021 8:15:00 PM 21.96 71.528 0.221 7.13 10.95 7.01
9/22/2021 8:30:00 PM 21.96 71.528 0.22 7.13 11.07 7.04
9/22/2021 8:45:00 PM 21.98 71.564 0.22 7.11 12.98 6.98
9/22/2021 9:00:00 PM 21.96 71.528 0.221 7.11 12.31 6.98
9/22/2021 9:15:00 PM 21.92 71.456 0.221 7.11 11.94 7.02
9/22/2021 9:30:00 PM 21.93 71.474 0.222 7.11 13.92 6.92
9/22/2021 9:45:00 PM 21.9 71.42 0.219 7.11 13.2 6.99
9/22/2021 10:00:00 PM 21.92 71.456 0.223 7.12 11.31 6.97
9/22/2021 10:15:00 PM 21.9 71.42 0.223 7.11 13.34 6.93
9/22/2021 10:30:00 PM 21.94 71.492 0.223 7.1 13.12 6.9
9/22/2021 10:45:00 PM 21.88 71.384 0.224 7.09 15.86 6.91
9/22/2021 11:00:00 PM 21.85 71.33 0.225 7.1 13.25 6.93
9/22/2021 11:15:00 PM 21.85 71.33 0.224 7.09 12.94 6.96
9/22/2021 11:30:00 PM 21.85 71.33 0.224 7.09 14.65 6.89
9/22/2021 11:45:00 PM 21.83 71.294 0.224 7.09 15.72 6.96
9/23/2021 12:00:00 AM 21.85 71.33 0.224 7.09 14.76 6.97
9/23/2021 12:15:00 AM 21.83 71.294 0.224 7.09 25.02 6.97
9/23/2021 12:30:00 AM 21.85 71.33 0.223 7.09 14.31 6.93
9/23/2021 12:45:00 AM 21.89 71.402 0.222 7.09 14.61 6.92
9/23/2021 1:00:00 AM 21.92 71.456 0.222 7.09 13.79 6.95
9/23/2021 1:15:00 AM 21.88 71.384 0.222 7.09 17.5 7.03
9/23/2021 1:30:00 AM 21.86 71.348 0.222 7.09 15.01 7.05
9/23/2021 1:45:00 AM 21.95 71.51 0.222 7.1 14.45 7.09
9/23/2021 2:00:00 AM 21.91 71.438 0.222 7.09 12.94 7.01
9/23/2021 2:15:00 AM 21.9 71.42 0.223 7.1 13.97 7.08
9/23/2021 2:30:00 AM 21.92 71.456 0.222 7.09 17.84 7.02
9/23/2021 2:45:00 AM 21.93 71.474 0.222 7.1 14.37 7.09
9/23/2021 3:00:00 AM 21.91 71.438 0.222 7.1 13.61 7.1
9/23/2021 3:15:00 AM 21.84 71.312 0.221 7.1 12.86 7.08
9/23/2021 3:30:00 AM 21.88 71.384 0.221 7.11 13.24 7.11
9/23/2021 3:45:00 AM 21.88 71.384 0.221 7.11 12.83 7.06
9/23/2021 4:00:00 AM 21.89 71.402 0.221 7.11 11.74 7.04
9/23/2021 4:15:00 AM 21.87 71.366 0.221 7.11 13.84 7.07
9/23/2021 4:30:00 AM 21.86 71.348 0.221 7.11 15.96 6.99
9/23/2021 4:45:00 AM 21.79 71.222 0.222 7.1 13.65 7.06
9/23/2021 5:00:00 AM 21.82 71.276 0.221 7.09 15.11 6.98
9/23/2021 5:15:00 AM 21.76 71.168 0.222 7.08 19.8 6.85
9/23/2021 5:30:00 AM 21.75 71.15 0.222 7.07 21.63 6.82
9/23/2021 5:45:00 AM 21.76 71.168 0.222 7.06 21.26 6.7
9/23/2021 6:00:00 AM 21.71 71.078 0.223 7.04 16.25 6.74
9/23/2021 6:15:00 AM 21.71 71.078 0.222 7.04 20 6.52
9/23/2021 6:30:00 AM 21.69 71.042 0.221 7.02 20.65 6.72
9/23/2021 6:45:00 AM 21.56 70.808 0.22 7.01 18.73 6.71
9/23/2021 7:00:00 AM 21.52 70.736 0.22 7.01 19.33 6.73
9/23/2021 7:15:00 AM 21.47 70.646 0.219 7.01 17.92 6.78
9/23/2021 7:30:00 AM 21.37 70.466 0.217 7 21.81 6.91
9/23/2021 7:45:00 AM 21.33 70.394 0.215 7.01 22.51 6.96
9/23/2021 8:00:00 AM 21.4 70.52 0.213 7 31.86 6.93
9/23/2021 8:15:00 AM 21.35 70.43 0.214 7.01 37.34 7.09
9/23/2021 8:30:00 AM 21.09 69.962 0.213 7.02 46.13 7.23
9/23/2021 8:45:00 AM 21 69.8 0.217 7.03 61.21 7.38
9/23/2021 9:00:00 AM 20.93 69.674 0.21 7.05 82.8 7.42
9/23/2021 9:15:00 AM 20.97 69.746 0.203 7.06 62.12 7.52
9/23/2021 9:30:00 AM 20.94 69.692 0.194 7.07 71.82 7.65
9/23/2021 9:45:00 AM 20.97 69.746 0.19 7.07 83.32 7.66
9/23/2021 10:00:00 AM 21.13 70.034 0.191 7.06 71.94 7.71
9/23/2021 10:15:00 AM 21.28 70.304 0.192 7.07 63.03 7.65
9/23/2021 10:30:00 AM 22.47 72.446 0.189 7.1 145.5 7.73
9/23/2021 10:45:00 AM 22.73 72.914 0.191 7.1 122.1 7.99
9/23/2021 11:00:00 AM 22.73 72.914 0.19 7.14 61.13 8.04
9/23/2021 11:15:00 AM 22.7 72.86 0.192 7.16 48.95 8
9/23/2021 11:30:00 AM 22.75 72.95 0.196 7.21 45.99 8.05
9/23/2021 11:45:00 AM 22.8 73.04 0.199 7.21 33.41 8.08
9/23/2021 12:00:00 PM 22.79 73.022 0.198 7.24 35.92 8.12
9/23/2021 12:15:00 PM 22.91 73.238 0.196 7.25 41.49 8.11
9/23/2021 12:30:00 PM 22.65 72.77 0.199 7.26 44.77 8.2
9/23/2021 12:45:00 PM 22.96 73.328 0.198 7.27 41.94 8.15
9/23/2021 1:00:00 PM 22.7 72.86 0.209 7.28 60.69 8.1
9/23/2021 1:15:00 PM 22.69 72.842 0.21 7.28 80.55 8.11
9/23/2021 1:30:00 PM 22.7 72.86 0.21 7.29 81.27 8.11
9/23/2021 1:45:00 PM 22.77 72.986 0.209 7.3 65.37 8.05
9/23/2021 2:00:00 PM 22.89 73.202 0.207 7.3 64.56 8.14

These are provisional data and have not been subject to a quality assurance process, but rather are the raw data reported by the instrument.
H: value is above sensor operating range
L: value is below sensor operating range
Offline: station is not reporting data
NC: parameter is not collected at site

Data Availability & Limitations

Uncertainty and potential for error can be associated with environmental monitoring data. Provisional data have not been subject to a quality assurance process, but rather are the raw data reported by the instrument. Data users are cautioned to consider carefully the provisional nature of the information before using it for decisions that concern personal or public safety or the conduct of business that involves substantial monetary or operational consequences.

Approved data are currently available by request by emailing: srbc@srbc.net. Approved data have been subject to a quality assurance process to correct for equipment or fouling drift. Data recorded during equipment malfunctions have been removed.

View Historical Stations that have been discontinued.